<?xml version="1.0" encoding="UTF-8"?>
<gpx xmlns="http://www.topografix.com/GPX/1/1" xmlns:xsi="http://www.w3.org/2001/XMLSchema-instance" version="1.1" xsi:schemaLocation="http://www.topografix.com/GPX/1/1 http://www.topografix.com/GPX/1/1/gpx.xsd">
  <metadata>
    <name>Schinias Triathlon</name>
  </metadata>
  <trk>
    <name>Schinias Triathlon</name>
    <trkseg>
      <trkpt lat="38.137841" lon="24.015135">
        <ele>3.340305</ele>
        <time>2024-04-28T09:30:00.000Z</time>
      </trkpt>
      <trkpt lat="38.137902" lon="24.015243">
        <ele>3.340318</ele>
        <time>2024-04-28T09:30:01.000Z</time>
      </trkpt>
      <trkpt lat="38.137991" lon="24.015384">
        <ele>3.340308</ele>
        <time>2024-04-28T09:30:03.000Z</time>
      </trkpt>
      <trkpt lat="38.138173" lon="24.015742">
        <ele>3.340303</ele>
        <time>2024-04-28T09:30:07.000Z</time>
      </trkpt>
      <trkpt lat="38.138157" lon="24.015979">
        <ele>3.340306</ele>
        <time>2024-04-28T09:30:09.000Z</time>
      </trkpt>
      <trkpt lat="38.138154" lon="24.016018">
        <ele>3.340305</ele>
        <time>2024-04-28T09:30:09.000Z</time>
      </trkpt>
      <trkpt lat="38.13813" lon="24.016246">
        <ele>3.326509</ele>
        <time>2024-04-28T09:30:11.000Z</time>
      </trkpt>
      <trkpt lat="38.138132" lon="24.016269">
        <ele>3.324246</ele>
        <time>2024-04-28T09:30:11.000Z</time>
      </trkpt>
      <trkpt lat="38.138122" lon="24.016688">
        <ele>3.274119</ele>
        <time>2024-04-28T09:30:15.000Z</time>
      </trkpt>
      <trkpt lat="38.138137" lon="24.016701">
        <ele>3.274104</ele>
        <time>2024-04-28T09:30:15.000Z</time>
      </trkpt>
      <trkpt lat="38.138227" lon="24.016691">
        <ele>3.260252</ele>
        <time>2024-04-28T09:30:16.000Z</time>
      </trkpt>
      <trkpt lat="38.138231" lon="24.016687">
        <ele>3.260252</ele>
        <time>2024-04-28T09:30:16.000Z</time>
      </trkpt>
      <trkpt lat="38.138417" lon="24.016671">
        <ele>3.232096</ele>
        <time>2024-04-28T09:30:18.000Z</time>
      </trkpt>
      <trkpt lat="38.138473" lon="24.016684">
        <ele>3.222012</ele>
        <time>2024-04-28T09:30:19.000Z</time>
      </trkpt>
      <trkpt lat="38.138577" lon="24.016684">
        <ele>3.206678</ele>
        <time>2024-04-28T09:30:20.000Z</time>
      </trkpt>
      <trkpt lat="38.138583" lon="24.016682">
        <ele>3.206676</ele>
        <time>2024-04-28T09:30:20.000Z</time>
      </trkpt>
      <trkpt lat="38.138776" lon="24.016671">
        <ele>3.178411</ele>
        <time>2024-04-28T09:30:22.000Z</time>
      </trkpt>
      <trkpt lat="38.138833" lon="24.016682">
        <ele>3.168645</ele>
        <time>2024-04-28T09:30:23.000Z</time>
      </trkpt>
      <trkpt lat="38.139081" lon="24.016652">
        <ele>3.131178</ele>
        <time>2024-04-28T09:30:26.000Z</time>
      </trkpt>
      <trkpt lat="38.139214" lon="24.016632">
        <ele>3.110788</ele>
        <time>2024-04-28T09:30:27.000Z</time>
      </trkpt>
      <trkpt lat="38.139263" lon="24.01662">
        <ele>3.103827</ele>
        <time>2024-04-28T09:30:28.000Z</time>
      </trkpt>
      <trkpt lat="38.139267" lon="24.016619">
        <ele>3.103685</ele>
        <time>2024-04-28T09:30:28.000Z</time>
      </trkpt>
      <trkpt lat="38.139495" lon="24.016516">
        <ele>3.07238</ele>
        <time>2024-04-28T09:30:31.000Z</time>
      </trkpt>
      <trkpt lat="38.139849" lon="24.01636">
        <ele>3.13827</ele>
        <time>2024-04-28T09:30:35.000Z</time>
      </trkpt>
      <trkpt lat="38.139863" lon="24.016363">
        <ele>3.140305</ele>
        <time>2024-04-28T09:30:35.000Z</time>
      </trkpt>
      <trkpt lat="38.13993" lon="24.016322">
        <ele>3.154793</ele>
        <time>2024-04-28T09:30:36.000Z</time>
      </trkpt>
      <trkpt lat="38.139972" lon="24.016304">
        <ele>3.161734</ele>
        <time>2024-04-28T09:30:36.000Z</time>
      </trkpt>
      <trkpt lat="38.140063" lon="24.016259">
        <ele>3.176918</ele>
        <time>2024-04-28T09:30:37.000Z</time>
      </trkpt>
      <trkpt lat="38.140122" lon="24.016242">
        <ele>3.188296</ele>
        <time>2024-04-28T09:30:38.000Z</time>
      </trkpt>
      <trkpt lat="38.14023" lon="24.016184">
        <ele>3.208207</ele>
        <time>2024-04-28T09:30:39.000Z</time>
      </trkpt>
      <trkpt lat="38.140576" lon="24.016038">
        <ele>3.272278</ele>
        <time>2024-04-28T09:30:43.000Z</time>
      </trkpt>
      <trkpt lat="38.140663" lon="24.015997">
        <ele>3.286937</ele>
        <time>2024-04-28T09:30:44.000Z</time>
      </trkpt>
      <trkpt lat="38.140743" lon="24.015938">
        <ele>3.303229</ele>
        <time>2024-04-28T09:30:45.000Z</time>
      </trkpt>
      <trkpt lat="38.140924" lon="24.015808">
        <ele>3.339653</ele>
        <time>2024-04-28T09:30:47.000Z</time>
      </trkpt>
      <trkpt lat="38.141069" lon="24.015684">
        <ele>3.369305</ele>
        <time>2024-04-28T09:30:49.000Z</time>
      </trkpt>
      <trkpt lat="38.141255" lon="24.015532">
        <ele>3.391755</ele>
        <time>2024-04-28T09:30:51.000Z</time>
      </trkpt>
      <trkpt lat="38.141405" lon="24.015393">
        <ele>3.404888</ele>
        <time>2024-04-28T09:30:53.000Z</time>
      </trkpt>
      <trkpt lat="38.141492" lon="24.015297">
        <ele>3.413585</ele>
        <time>2024-04-28T09:30:54.000Z</time>
      </trkpt>
      <trkpt lat="38.141441" lon="24.015106">
        <ele>3.424535</ele>
        <time>2024-04-28T09:30:56.000Z</time>
      </trkpt>
      <trkpt lat="38.14144" lon="24.015024">
        <ele>3.429699</ele>
        <time>2024-04-28T09:30:57.000Z</time>
      </trkpt>
      <trkpt lat="38.141434" lon="24.014887">
        <ele>3.436726</ele>
        <time>2024-04-28T09:30:58.000Z</time>
      </trkpt>
      <trkpt lat="38.14146" lon="24.014772">
        <ele>3.444215</ele>
        <time>2024-04-28T09:30:59.000Z</time>
      </trkpt>
      <trkpt lat="38.141569" lon="24.01469">
        <ele>3.452552</ele>
        <time>2024-04-28T09:31:00.000Z</time>
      </trkpt>
      <trkpt lat="38.141597" lon="24.014675">
        <ele>3.455382</ele>
        <time>2024-04-28T09:31:00.000Z</time>
      </trkpt>
      <trkpt lat="38.144996" lon="24.014447">
        <ele>3.252745</ele>
        <time>2024-04-28T09:31:38.000Z</time>
      </trkpt>
      <trkpt lat="38.145238" lon="24.014423">
        <ele>3.239506</ele>
        <time>2024-04-28T09:31:41.000Z</time>
      </trkpt>
      <trkpt lat="38.145371" lon="24.014423">
        <ele>3.231943</ele>
        <time>2024-04-28T09:31:42.000Z</time>
      </trkpt>
      <trkpt lat="38.145503" lon="24.014407">
        <ele>3.22509</ele>
        <time>2024-04-28T09:31:43.000Z</time>
      </trkpt>
      <trkpt lat="38.14579" lon="24.0144">
        <ele>3.208787</ele>
        <time>2024-04-28T09:31:46.000Z</time>
      </trkpt>
      <trkpt lat="38.145992" lon="24.014379">
        <ele>3.200008</ele>
        <time>2024-04-28T09:31:48.000Z</time>
      </trkpt>
      <trkpt lat="38.146193" lon="24.01437">
        <ele>3.199992</ele>
        <time>2024-04-28T09:31:50.000Z</time>
      </trkpt>
      <trkpt lat="38.146291" lon="24.014369">
        <ele>3.200008</ele>
        <time>2024-04-28T09:31:51.000Z</time>
      </trkpt>
      <trkpt lat="38.146768" lon="24.014333">
        <ele>3.199994</ele>
        <time>2024-04-28T09:31:56.000Z</time>
      </trkpt>
      <trkpt lat="38.146928" lon="24.01433">
        <ele>3.199991</ele>
        <time>2024-04-28T09:31:58.000Z</time>
      </trkpt>
      <trkpt lat="38.14706" lon="24.014314">
        <ele>3.199999</ele>
        <time>2024-04-28T09:31:59.000Z</time>
      </trkpt>
      <trkpt lat="38.147432" lon="24.014285">
        <ele>3.199999</ele>
        <time>2024-04-28T09:32:03.000Z</time>
      </trkpt>
      <trkpt lat="38.148306" lon="24.014236">
        <ele>3.194249</ele>
        <time>2024-04-28T09:32:13.000Z</time>
      </trkpt>
      <trkpt lat="38.148447" lon="24.014226">
        <ele>3.192793</ele>
        <time>2024-04-28T09:32:15.000Z</time>
      </trkpt>
      <trkpt lat="38.148586" lon="24.014208">
        <ele>3.191311</ele>
        <time>2024-04-28T09:32:17.000Z</time>
      </trkpt>
      <trkpt lat="38.148913" lon="24.014184">
        <ele>3.187982</ele>
        <time>2024-04-28T09:32:21.000Z</time>
      </trkpt>
      <trkpt lat="38.149061" lon="24.014183">
        <ele>3.186444</ele>
        <time>2024-04-28T09:32:23.000Z</time>
      </trkpt>
      <trkpt lat="38.149196" lon="24.01417">
        <ele>3.185065</ele>
        <time>2024-04-28T09:32:25.000Z</time>
      </trkpt>
      <trkpt lat="38.149343" lon="24.014157">
        <ele>3.183547</ele>
        <time>2024-04-28T09:32:27.000Z</time>
      </trkpt>
      <trkpt lat="38.149666" lon="24.014139">
        <ele>3.174436</ele>
        <time>2024-04-28T09:32:31.000Z</time>
      </trkpt>
      <trkpt lat="38.150564" lon="24.01409">
        <ele>3.123986</ele>
        <time>2024-04-28T09:32:41.000Z</time>
      </trkpt>
      <trkpt lat="38.150732" lon="24.014072">
        <ele>3.11506</ele>
        <time>2024-04-28T09:32:43.000Z</time>
      </trkpt>
      <trkpt lat="38.150864" lon="24.014071">
        <ele>3.107023</ele>
        <time>2024-04-28T09:32:44.000Z</time>
      </trkpt>
      <trkpt lat="38.151179" lon="24.014038">
        <ele>3.089286</ele>
        <time>2024-04-28T09:32:48.000Z</time>
      </trkpt>
      <trkpt lat="38.154283" lon="24.013839">
        <ele>2.905795</ele>
        <time>2024-04-28T09:33:23.000Z</time>
      </trkpt>
      <trkpt lat="38.154724" lon="24.013819">
        <ele>2.880354</ele>
        <time>2024-04-28T09:33:28.000Z</time>
      </trkpt>
      <trkpt lat="38.154995" lon="24.013807">
        <ele>2.863795</ele>
        <time>2024-04-28T09:33:31.000Z</time>
      </trkpt>
      <trkpt lat="38.15546" lon="24.013786">
        <ele>2.832159</ele>
        <time>2024-04-28T09:33:36.000Z</time>
      </trkpt>
      <trkpt lat="38.15574" lon="24.013754">
        <ele>2.813877</ele>
        <time>2024-04-28T09:33:39.000Z</time>
      </trkpt>
      <trkpt lat="38.156022" lon="24.013744">
        <ele>2.794784</ele>
        <time>2024-04-28T09:33:42.000Z</time>
      </trkpt>
      <trkpt lat="38.156035" lon="24.01375">
        <ele>2.794798</ele>
        <time>2024-04-28T09:33:42.000Z</time>
      </trkpt>
      <trkpt lat="38.15625" lon="24.013734">
        <ele>2.779496</ele>
        <time>2024-04-28T09:33:44.000Z</time>
      </trkpt>
      <trkpt lat="38.156362" lon="24.013731">
        <ele>2.772527</ele>
        <time>2024-04-28T09:33:45.000Z</time>
      </trkpt>
      <trkpt lat="38.156523" lon="24.013729">
        <ele>2.762012</ele>
        <time>2024-04-28T09:33:47.000Z</time>
      </trkpt>
      <trkpt lat="38.156677" lon="24.013707">
        <ele>2.751586</ele>
        <time>2024-04-28T09:33:49.000Z</time>
      </trkpt>
      <trkpt lat="38.156676" lon="24.013705">
        <ele>2.751596</ele>
        <time>2024-04-28T09:33:49.000Z</time>
      </trkpt>
      <trkpt lat="38.156823" lon="24.013712">
        <ele>2.776349</ele>
        <time>2024-04-28T09:33:51.000Z</time>
      </trkpt>
      <trkpt lat="38.157575" lon="24.013653">
        <ele>3.001828</ele>
        <time>2024-04-28T09:33:59.000Z</time>
      </trkpt>
      <trkpt lat="38.157786" lon="24.01365">
        <ele>3.059907</ele>
        <time>2024-04-28T09:34:01.000Z</time>
      </trkpt>
      <trkpt lat="38.158027" lon="24.013641">
        <ele>3.13191</ele>
        <time>2024-04-28T09:34:04.000Z</time>
      </trkpt>
      <trkpt lat="38.158251" lon="24.013626">
        <ele>3.197681</ele>
        <time>2024-04-28T09:34:06.000Z</time>
      </trkpt>
      <trkpt lat="38.158335" lon="24.013624">
        <ele>3.223153</ele>
        <time>2024-04-28T09:34:07.000Z</time>
      </trkpt>
      <trkpt lat="38.158613" lon="24.013599">
        <ele>3.324887</ele>
        <time>2024-04-28T09:34:10.000Z</time>
      </trkpt>
      <trkpt lat="38.158861" lon="24.013577">
        <ele>3.461812</ele>
        <time>2024-04-28T09:34:13.000Z</time>
      </trkpt>
      <trkpt lat="38.158853" lon="24.013586">
        <ele>3.466759</ele>
        <time>2024-04-28T09:34:13.000Z</time>
      </trkpt>
      <trkpt lat="38.158998" lon="24.013586">
        <ele>3.542414</ele>
        <time>2024-04-28T09:34:15.000Z</time>
      </trkpt>
      <trkpt lat="38.159086" lon="24.013571">
        <ele>3.592133</ele>
        <time>2024-04-28T09:34:16.000Z</time>
      </trkpt>
      <trkpt lat="38.159442" lon="24.013548">
        <ele>3.78266</ele>
        <time>2024-04-28T09:34:20.000Z</time>
      </trkpt>
      <trkpt lat="38.159608" lon="24.013533">
        <ele>3.879281</ele>
        <time>2024-04-28T09:34:22.000Z</time>
      </trkpt>
      <trkpt lat="38.159753" lon="24.013519">
        <ele>3.953832</ele>
        <time>2024-04-28T09:34:24.000Z</time>
      </trkpt>
      <trkpt lat="38.159861" lon="24.013528">
        <ele>4.014017</ele>
        <time>2024-04-28T09:34:25.000Z</time>
      </trkpt>
      <trkpt lat="38.160249" lon="24.013496">
        <ele>4.231614</ele>
        <time>2024-04-28T09:34:29.000Z</time>
      </trkpt>
      <trkpt lat="38.160353" lon="24.013489">
        <ele>4.271337</ele>
        <time>2024-04-28T09:34:30.000Z</time>
      </trkpt>
      <trkpt lat="38.160513" lon="24.013476">
        <ele>4.264211</ele>
        <time>2024-04-28T09:34:32.000Z</time>
      </trkpt>
      <trkpt lat="38.160511" lon="24.013461">
        <ele>4.26366</ele>
        <time>2024-04-28T09:34:32.000Z</time>
      </trkpt>
      <trkpt lat="38.160511" lon="24.013408">
        <ele>4.261524</ele>
        <time>2024-04-28T09:34:32.000Z</time>
      </trkpt>
      <trkpt lat="38.160497" lon="24.012861">
        <ele>4.242793</ele>
        <time>2024-04-28T09:34:37.000Z</time>
      </trkpt>
      <trkpt lat="38.160491" lon="24.012692">
        <ele>4.236959</ele>
        <time>2024-04-28T09:34:38.000Z</time>
      </trkpt>
      <trkpt lat="38.160486" lon="24.012524">
        <ele>4.230752</ele>
        <time>2024-04-28T09:34:39.000Z</time>
      </trkpt>
      <trkpt lat="38.160472" lon="24.012359">
        <ele>4.225013</ele>
        <time>2024-04-28T09:34:40.000Z</time>
      </trkpt>
      <trkpt lat="38.160466" lon="24.011901">
        <ele>4.209018</ele>
        <time>2024-04-28T09:34:44.000Z</time>
      </trkpt>
      <trkpt lat="38.160463" lon="24.011687">
        <ele>4.201821</ele>
        <time>2024-04-28T09:34:46.000Z</time>
      </trkpt>
      <trkpt lat="38.160457" lon="24.011549">
        <ele>4.196421</ele>
        <time>2024-04-28T09:34:47.000Z</time>
      </trkpt>
      <trkpt lat="38.160442" lon="24.011465">
        <ele>4.19363</ele>
        <time>2024-04-28T09:34:48.000Z</time>
      </trkpt>
      <trkpt lat="38.160383" lon="24.011452">
        <ele>4.179134</ele>
        <time>2024-04-28T09:34:49.000Z</time>
      </trkpt>
      <trkpt lat="38.160194" lon="24.011426">
        <ele>4.117678</ele>
        <time>2024-04-28T09:34:51.000Z</time>
      </trkpt>
      <trkpt lat="38.16005" lon="24.011432">
        <ele>4.071207</ele>
        <time>2024-04-28T09:34:53.000Z</time>
      </trkpt>
      <trkpt lat="38.159872" lon="24.011441">
        <ele>4.010636</ele>
        <time>2024-04-28T09:34:55.000Z</time>
      </trkpt>
      <trkpt lat="38.1598" lon="24.011462">
        <ele>3.988049</ele>
        <time>2024-04-28T09:34:56.000Z</time>
      </trkpt>
      <trkpt lat="38.159658" lon="24.011458">
        <ele>3.940586</ele>
        <time>2024-04-28T09:34:58.000Z</time>
      </trkpt>
      <trkpt lat="38.159304" lon="24.011476">
        <ele>3.823404</ele>
        <time>2024-04-28T09:35:02.000Z</time>
      </trkpt>
      <trkpt lat="38.159055" lon="24.011489">
        <ele>3.741585</ele>
        <time>2024-04-28T09:35:05.000Z</time>
      </trkpt>
      <trkpt lat="38.158993" lon="24.011509">
        <ele>3.723572</ele>
        <time>2024-04-28T09:35:06.000Z</time>
      </trkpt>
      <trkpt lat="38.158859" lon="24.011502">
        <ele>3.679377</ele>
        <time>2024-04-28T09:35:07.000Z</time>
      </trkpt>
      <trkpt lat="38.158496" lon="24.011534">
        <ele>3.595988</ele>
        <time>2024-04-28T09:35:11.000Z</time>
      </trkpt>
      <trkpt lat="38.158296" lon="24.011536">
        <ele>3.582626</ele>
        <time>2024-04-28T09:35:13.000Z</time>
      </trkpt>
      <trkpt lat="38.158158" lon="24.011551">
        <ele>3.572317</ele>
        <time>2024-04-28T09:35:15.000Z</time>
      </trkpt>
      <trkpt lat="38.158032" lon="24.011553">
        <ele>3.563893</ele>
        <time>2024-04-28T09:35:16.000Z</time>
      </trkpt>
      <trkpt lat="38.157691" lon="24.011585">
        <ele>3.540701</ele>
        <time>2024-04-28T09:35:20.000Z</time>
      </trkpt>
      <trkpt lat="38.157552" lon="24.011588">
        <ele>3.531673</ele>
        <time>2024-04-28T09:35:22.000Z</time>
      </trkpt>
      <trkpt lat="38.157337" lon="24.011599">
        <ele>3.516826</ele>
        <time>2024-04-28T09:35:24.000Z</time>
      </trkpt>
      <trkpt lat="38.157189" lon="24.011607">
        <ele>3.507121</ele>
        <time>2024-04-28T09:35:26.000Z</time>
      </trkpt>
      <trkpt lat="38.156851" lon="24.01162">
        <ele>3.484466</ele>
        <time>2024-04-28T09:35:30.000Z</time>
      </trkpt>
      <trkpt lat="38.156777" lon="24.011637">
        <ele>3.477868</ele>
        <time>2024-04-28T09:35:31.000Z</time>
      </trkpt>
      <trkpt lat="38.156493" lon="24.011657">
        <ele>3.44759</ele>
        <time>2024-04-28T09:35:34.000Z</time>
      </trkpt>
      <trkpt lat="38.156439" lon="24.011662">
        <ele>3.441991</ele>
        <time>2024-04-28T09:35:35.000Z</time>
      </trkpt>
      <trkpt lat="38.15601" lon="24.011684">
        <ele>3.39899</ele>
        <time>2024-04-28T09:35:40.000Z</time>
      </trkpt>
      <trkpt lat="38.156009" lon="24.011681">
        <ele>3.397752</ele>
        <time>2024-04-28T09:35:40.000Z</time>
      </trkpt>
      <trkpt lat="38.155733" lon="24.011697">
        <ele>3.369833</ele>
        <time>2024-04-28T09:35:43.000Z</time>
      </trkpt>
      <trkpt lat="38.155671" lon="24.011694">
        <ele>3.364139</ele>
        <time>2024-04-28T09:35:44.000Z</time>
      </trkpt>
      <trkpt lat="38.155217" lon="24.011721">
        <ele>3.317312</ele>
        <time>2024-04-28T09:35:49.000Z</time>
      </trkpt>
      <trkpt lat="38.155177" lon="24.01172">
        <ele>3.312854</ele>
        <time>2024-04-28T09:35:49.000Z</time>
      </trkpt>
      <trkpt lat="38.154959" lon="24.011745">
        <ele>3.30262</ele>
        <time>2024-04-28T09:35:51.000Z</time>
      </trkpt>
      <trkpt lat="38.154796" lon="24.011744">
        <ele>3.314084</ele>
        <time>2024-04-28T09:35:53.000Z</time>
      </trkpt>
      <trkpt lat="38.153626" lon="24.011816">
        <ele>3.395627</ele>
        <time>2024-04-28T09:36:06.000Z</time>
      </trkpt>
      <trkpt lat="38.153607" lon="24.011816">
        <ele>3.396806</ele>
        <time>2024-04-28T09:36:06.000Z</time>
      </trkpt>
      <trkpt lat="38.153413" lon="24.011833">
        <ele>3.410337</ele>
        <time>2024-04-28T09:36:08.000Z</time>
      </trkpt>
      <trkpt lat="38.153384" lon="24.01183">
        <ele>3.411856</ele>
        <time>2024-04-28T09:36:08.000Z</time>
      </trkpt>
      <trkpt lat="38.151625" lon="24.011948">
        <ele>3.516848</ele>
        <time>2024-04-28T09:36:28.000Z</time>
      </trkpt>
      <trkpt lat="38.151536" lon="24.011957">
        <ele>3.522789</ele>
        <time>2024-04-28T09:36:29.000Z</time>
      </trkpt>
      <trkpt lat="38.151108" lon="24.011991">
        <ele>3.515603</ele>
        <time>2024-04-28T09:36:34.000Z</time>
      </trkpt>
      <trkpt lat="38.151025" lon="24.012002">
        <ele>3.512832</ele>
        <time>2024-04-28T09:36:35.000Z</time>
      </trkpt>
      <trkpt lat="38.150536" lon="24.012029">
        <ele>3.494925</ele>
        <time>2024-04-28T09:36:40.000Z</time>
      </trkpt>
      <trkpt lat="38.150538" lon="24.012039">
        <ele>3.494928</ele>
        <time>2024-04-28T09:36:40.000Z</time>
      </trkpt>
      <trkpt lat="38.150332" lon="24.012046">
        <ele>3.487535</ele>
        <time>2024-04-28T09:36:42.000Z</time>
      </trkpt>
      <trkpt lat="38.150212" lon="24.012047">
        <ele>3.483382</ele>
        <time>2024-04-28T09:36:43.000Z</time>
      </trkpt>
      <trkpt lat="38.149727" lon="24.012069">
        <ele>3.465936</ele>
        <time>2024-04-28T09:36:48.000Z</time>
      </trkpt>
      <trkpt lat="38.149712" lon="24.012077">
        <ele>3.465063</ele>
        <time>2024-04-28T09:36:48.000Z</time>
      </trkpt>
      <trkpt lat="38.149391" lon="24.012098">
        <ele>3.501052</ele>
        <time>2024-04-28T09:36:52.000Z</time>
      </trkpt>
      <trkpt lat="38.149341" lon="24.012097">
        <ele>3.507864</ele>
        <time>2024-04-28T09:36:53.000Z</time>
      </trkpt>
      <trkpt lat="38.148945" lon="24.012121">
        <ele>3.567735</ele>
        <time>2024-04-28T09:36:57.000Z</time>
      </trkpt>
      <trkpt lat="38.148935" lon="24.012115">
        <ele>3.570004</ele>
        <time>2024-04-28T09:36:57.000Z</time>
      </trkpt>
      <trkpt lat="38.14877" lon="24.012139">
        <ele>3.595869</ele>
        <time>2024-04-28T09:36:59.000Z</time>
      </trkpt>
      <trkpt lat="38.148574" lon="24.012149">
        <ele>3.62566</ele>
        <time>2024-04-28T09:37:01.000Z</time>
      </trkpt>
      <trkpt lat="38.148154" lon="24.012167">
        <ele>3.68689</ele>
        <time>2024-04-28T09:37:06.000Z</time>
      </trkpt>
      <trkpt lat="38.148129" lon="24.012175">
        <ele>3.691417</ele>
        <time>2024-04-28T09:37:06.000Z</time>
      </trkpt>
      <trkpt lat="38.147973" lon="24.012186">
        <ele>3.715771</ele>
        <time>2024-04-28T09:37:08.000Z</time>
      </trkpt>
      <trkpt lat="38.147318" lon="24.012217">
        <ele>3.752987</ele>
        <time>2024-04-28T09:37:15.000Z</time>
      </trkpt>
      <trkpt lat="38.147183" lon="24.012237">
        <ele>3.758172</ele>
        <time>2024-04-28T09:37:17.000Z</time>
      </trkpt>
      <trkpt lat="38.146914" lon="24.01224">
        <ele>3.767862</ele>
        <time>2024-04-28T09:37:20.000Z</time>
      </trkpt>
      <trkpt lat="38.146574" lon="24.012266">
        <ele>3.779807</ele>
        <time>2024-04-28T09:37:24.000Z</time>
      </trkpt>
      <trkpt lat="38.146392" lon="24.012289">
        <ele>3.78661</ele>
        <time>2024-04-28T09:37:26.000Z</time>
      </trkpt>
      <trkpt lat="38.146087" lon="24.012306">
        <ele>3.797094</ele>
        <time>2024-04-28T09:37:29.000Z</time>
      </trkpt>
      <trkpt lat="38.14579" lon="24.012324">
        <ele>3.794143</ele>
        <time>2024-04-28T09:37:32.000Z</time>
      </trkpt>
      <trkpt lat="38.145684" lon="24.012333">
        <ele>3.792079</ele>
        <time>2024-04-28T09:37:33.000Z</time>
      </trkpt>
      <trkpt lat="38.14057" lon="24.012646">
        <ele>3.677872</ele>
        <time>2024-04-28T09:38:30.000Z</time>
      </trkpt>
      <trkpt lat="38.140335" lon="24.012787">
        <ele>3.625903</ele>
        <time>2024-04-28T09:38:33.000Z</time>
      </trkpt>
      <trkpt lat="38.140181" lon="24.013004">
        <ele>3.578756</ele>
        <time>2024-04-28T09:38:36.000Z</time>
      </trkpt>
      <trkpt lat="38.140011" lon="24.013343">
        <ele>3.514217</ele>
        <time>2024-04-28T09:38:40.000Z</time>
      </trkpt>
      <trkpt lat="38.139831" lon="24.013855">
        <ele>3.424768</ele>
        <time>2024-04-28T09:38:45.000Z</time>
      </trkpt>
      <trkpt lat="38.139821" lon="24.013874">
        <ele>3.420139</ele>
        <time>2024-04-28T09:38:45.000Z</time>
      </trkpt>
      <trkpt lat="38.139815" lon="24.014162">
        <ele>3.376975</ele>
        <time>2024-04-28T09:38:48.000Z</time>
      </trkpt>
      <trkpt lat="38.139827" lon="24.014175">
        <ele>3.372677</ele>
        <time>2024-04-28T09:38:48.000Z</time>
      </trkpt>
      <trkpt lat="38.139875" lon="24.01436">
        <ele>3.34233</ele>
        <time>2024-04-28T09:38:50.000Z</time>
      </trkpt>
      <trkpt lat="38.139903" lon="24.014482">
        <ele>3.319757</ele>
        <time>2024-04-28T09:38:51.000Z</time>
      </trkpt>
      <trkpt lat="38.139899" lon="24.014504">
        <ele>3.31678</ele>
        <time>2024-04-28T09:38:51.000Z</time>
      </trkpt>
      <trkpt lat="38.140164" lon="24.014966">
        <ele>3.207678</ele>
        <time>2024-04-28T09:38:56.000Z</time>
      </trkpt>
      <trkpt lat="38.140262" lon="24.015081">
        <ele>3.17482</ele>
        <time>2024-04-28T09:38:57.000Z</time>
      </trkpt>
      <trkpt lat="38.140263" lon="24.015079">
        <ele>3.174815</ele>
        <time>2024-04-28T09:38:57.000Z</time>
      </trkpt>
      <trkpt lat="38.140381" lon="24.015268">
        <ele>3.130753</ele>
        <time>2024-04-28T09:38:59.000Z</time>
      </trkpt>
      <trkpt lat="38.140443" lon="24.015365">
        <ele>3.10708</ele>
        <time>2024-04-28T09:39:00.000Z</time>
      </trkpt>
      <trkpt lat="38.140513" lon="24.015473">
        <ele>3.079228</ele>
        <time>2024-04-28T09:39:01.000Z</time>
      </trkpt>
      <trkpt lat="38.140517" lon="24.015489">
        <ele>3.078043</ele>
        <time>2024-04-28T09:39:01.000Z</time>
      </trkpt>
      <trkpt lat="38.140563" lon="24.015576">
        <ele>3.057637</ele>
        <time>2024-04-28T09:39:02.000Z</time>
      </trkpt>
      <trkpt lat="38.1406" lon="24.015637">
        <ele>3.044072</ele>
        <time>2024-04-28T09:39:03.000Z</time>
      </trkpt>
      <trkpt lat="38.140663" lon="24.015755">
        <ele>3.015751</ele>
        <time>2024-04-28T09:39:04.000Z</time>
      </trkpt>
      <trkpt lat="38.140668" lon="24.015791">
        <ele>3.009348</ele>
        <time>2024-04-28T09:39:04.000Z</time>
      </trkpt>
      <trkpt lat="38.140749" lon="24.015944">
        <ele>2.976342</ele>
        <time>2024-04-28T09:39:06.000Z</time>
      </trkpt>
      <trkpt lat="38.140653" lon="24.015988">
        <ele>2.953658</ele>
        <time>2024-04-28T09:39:07.000Z</time>
      </trkpt>
      <trkpt lat="38.140574" lon="24.016027">
        <ele>2.933246</ele>
        <time>2024-04-28T09:39:08.000Z</time>
      </trkpt>
      <trkpt lat="38.140235" lon="24.016185">
        <ele>2.915696</ele>
        <time>2024-04-28T09:39:12.000Z</time>
      </trkpt>
      <trkpt lat="38.140119" lon="24.016238">
        <ele>2.92343</ele>
        <time>2024-04-28T09:39:13.000Z</time>
      </trkpt>
      <trkpt lat="38.140068" lon="24.016271">
        <ele>2.927836</ele>
        <time>2024-04-28T09:39:14.000Z</time>
      </trkpt>
      <trkpt lat="38.139981" lon="24.016311">
        <ele>2.933725</ele>
        <time>2024-04-28T09:39:15.000Z</time>
      </trkpt>
      <trkpt lat="38.139945" lon="24.016321">
        <ele>2.936419</ele>
        <time>2024-04-28T09:39:15.000Z</time>
      </trkpt>
      <trkpt lat="38.139855" lon="24.016356">
        <ele>2.942042</ele>
        <time>2024-04-28T09:39:16.000Z</time>
      </trkpt>
      <trkpt lat="38.139846" lon="24.016351">
        <ele>2.942833</ele>
        <time>2024-04-28T09:39:16.000Z</time>
      </trkpt>
      <trkpt lat="38.139494" lon="24.016527">
        <ele>2.968397</ele>
        <time>2024-04-28T09:39:20.000Z</time>
      </trkpt>
      <trkpt lat="38.13926" lon="24.016631">
        <ele>2.984447</ele>
        <time>2024-04-28T09:39:23.000Z</time>
      </trkpt>
      <trkpt lat="38.139253" lon="24.016615">
        <ele>2.984519</ele>
        <time>2024-04-28T09:39:23.000Z</time>
      </trkpt>
      <trkpt lat="38.139217" lon="24.016636">
        <ele>2.987622</ele>
        <time>2024-04-28T09:39:23.000Z</time>
      </trkpt>
      <trkpt lat="38.139071" lon="24.016641">
        <ele>2.996697</ele>
        <time>2024-04-28T09:39:25.000Z</time>
      </trkpt>
      <trkpt lat="38.138837" lon="24.016671">
        <ele>3.01339</ele>
        <time>2024-04-28T09:39:28.000Z</time>
      </trkpt>
      <trkpt lat="38.138765" lon="24.016666">
        <ele>3.017745</ele>
        <time>2024-04-28T09:39:29.000Z</time>
      </trkpt>
      <trkpt lat="38.138585" lon="24.016683">
        <ele>3.012668</ele>
        <time>2024-04-28T09:39:31.000Z</time>
      </trkpt>
      <trkpt lat="38.138588" lon="24.016669">
        <ele>3.01266</ele>
        <time>2024-04-28T09:39:31.000Z</time>
      </trkpt>
      <trkpt lat="38.13847" lon="24.016677">
        <ele>3.007118</ele>
        <time>2024-04-28T09:39:32.000Z</time>
      </trkpt>
      <trkpt lat="38.138415" lon="24.016673">
        <ele>3.003475</ele>
        <time>2024-04-28T09:39:33.000Z</time>
      </trkpt>
      <trkpt lat="38.138216" lon="24.016695">
        <ele>2.993295</ele>
        <time>2024-04-28T09:39:35.000Z</time>
      </trkpt>
      <trkpt lat="38.138224" lon="24.016697">
        <ele>2.993298</ele>
        <time>2024-04-28T09:39:35.000Z</time>
      </trkpt>
      <trkpt lat="38.13822" lon="24.016493">
        <ele>2.984919</ele>
        <time>2024-04-28T09:39:37.000Z</time>
      </trkpt>
      <trkpt lat="38.138219" lon="24.016476">
        <ele>2.984157</ele>
        <time>2024-04-28T09:39:37.000Z</time>
      </trkpt>
      <trkpt lat="38.138246" lon="24.016022">
        <ele>2.964889</ele>
        <time>2024-04-28T09:39:41.000Z</time>
      </trkpt>
      <trkpt lat="38.138333" lon="24.015314">
        <ele>2.933863</ele>
        <time>2024-04-28T09:39:47.000Z</time>
      </trkpt>
      <trkpt lat="38.138505" lon="24.014698">
        <ele>2.947958</ele>
        <time>2024-04-28T09:39:53.000Z</time>
      </trkpt>
      <trkpt lat="38.138852" lon="24.013929">
        <ele>3.004945</ele>
        <time>2024-04-28T09:40:01.000Z</time>
      </trkpt>
      <trkpt lat="38.138941" lon="24.013795">
        <ele>3.015878</ele>
        <time>2024-04-28T09:40:03.000Z</time>
      </trkpt>
      <trkpt lat="38.138953" lon="24.013755">
        <ele>3.018749</ele>
        <time>2024-04-28T09:40:03.000Z</time>
      </trkpt>
      <trkpt lat="38.138986" lon="24.013717">
        <ele>3.022102</ele>
        <time>2024-04-28T09:40:03.000Z</time>
      </trkpt>
      <trkpt lat="38.139061" lon="24.013573">
        <ele>3.033374</ele>
        <time>2024-04-28T09:40:05.000Z</time>
      </trkpt>
      <trkpt lat="38.13916" lon="24.013439">
        <ele>3.044943</ele>
        <time>2024-04-28T09:40:07.000Z</time>
      </trkpt>
      <trkpt lat="38.139149" lon="24.013444">
        <ele>3.044953</ele>
        <time>2024-04-28T09:40:07.000Z</time>
      </trkpt>
      <trkpt lat="38.139299" lon="24.013233">
        <ele>3.062287</ele>
        <time>2024-04-28T09:40:09.000Z</time>
      </trkpt>
      <trkpt lat="38.139321" lon="24.013203">
        <ele>3.064963</ele>
        <time>2024-04-28T09:40:09.000Z</time>
      </trkpt>
      <trkpt lat="38.139399" lon="24.013096">
        <ele>3.08683</ele>
        <time>2024-04-28T09:40:10.000Z</time>
      </trkpt>
      <trkpt lat="38.139651" lon="24.012699">
        <ele>3.199918</ele>
        <time>2024-04-28T09:40:14.000Z</time>
      </trkpt>
      <trkpt lat="38.140117" lon="24.011965">
        <ele>3.415488</ele>
        <time>2024-04-28T09:40:22.000Z</time>
      </trkpt>
      <trkpt lat="38.140304" lon="24.01171">
        <ele>3.492533</ele>
        <time>2024-04-28T09:40:25.000Z</time>
      </trkpt>
      <trkpt lat="38.14042" lon="24.011533">
        <ele>3.543319</ele>
        <time>2024-04-28T09:40:27.000Z</time>
      </trkpt>
      <trkpt lat="38.140622" lon="24.01123">
        <ele>3.603416</ele>
        <time>2024-04-28T09:40:30.000Z</time>
      </trkpt>
      <trkpt lat="38.141267" lon="24.010237">
        <ele>3.708951</ele>
        <time>2024-04-28T09:40:41.000Z</time>
      </trkpt>
      <trkpt lat="38.141257" lon="24.010235">
        <ele>3.709228</ele>
        <time>2024-04-28T09:40:41.000Z</time>
      </trkpt>
      <trkpt lat="38.14142" lon="24.01">
        <ele>3.735993</ele>
        <time>2024-04-28T09:40:44.000Z</time>
      </trkpt>
      <trkpt lat="38.141683" lon="24.009604">
        <ele>3.78415</ele>
        <time>2024-04-28T09:40:49.000Z</time>
      </trkpt>
      <trkpt lat="38.141764" lon="24.00948">
        <ele>3.81864</ele>
        <time>2024-04-28T09:40:50.000Z</time>
      </trkpt>
      <trkpt lat="38.141755" lon="24.009477">
        <ele>3.818646</ele>
        <time>2024-04-28T09:40:50.000Z</time>
      </trkpt>
      <trkpt lat="38.141898" lon="24.009263">
        <ele>3.879418</ele>
        <time>2024-04-28T09:40:52.000Z</time>
      </trkpt>
      <trkpt lat="38.142213" lon="24.0088">
        <ele>4.009375</ele>
        <time>2024-04-28T09:40:57.000Z</time>
      </trkpt>
      <trkpt lat="38.142417" lon="24.008491">
        <ele>4.096789</ele>
        <time>2024-04-28T09:41:01.000Z</time>
      </trkpt>
      <trkpt lat="38.142409" lon="24.00849">
        <ele>4.096799</ele>
        <time>2024-04-28T09:41:01.000Z</time>
      </trkpt>
      <trkpt lat="38.142728" lon="24.007993">
        <ele>4.23665</ele>
        <time>2024-04-28T09:41:07.000Z</time>
      </trkpt>
      <trkpt lat="38.142808" lon="24.007875">
        <ele>4.270909</ele>
        <time>2024-04-28T09:41:08.000Z</time>
      </trkpt>
      <trkpt lat="38.142848" lon="24.007835">
        <ele>4.273503</ele>
        <time>2024-04-28T09:41:09.000Z</time>
      </trkpt>
      <trkpt lat="38.14299" lon="24.007628">
        <ele>4.286224</ele>
        <time>2024-04-28T09:41:11.000Z</time>
      </trkpt>
      <trkpt lat="38.145732" lon="24.003432">
        <ele>4.707831</ele>
        <time>2024-04-28T09:41:59.000Z</time>
      </trkpt>
      <trkpt lat="38.146154" lon="24.002803">
        <ele>4.862342</ele>
        <time>2024-04-28T09:42:06.000Z</time>
      </trkpt>
      <trkpt lat="38.14615" lon="24.002805">
        <ele>4.862332</ele>
        <time>2024-04-28T09:42:06.000Z</time>
      </trkpt>
      <trkpt lat="38.146228" lon="24.002771">
        <ele>4.881857</ele>
        <time>2024-04-28T09:42:07.000Z</time>
      </trkpt>
      <trkpt lat="38.14637" lon="24.002723">
        <ele>4.930634</ele>
        <time>2024-04-28T09:42:09.000Z</time>
      </trkpt>
      <trkpt lat="38.146435" lon="24.002726">
        <ele>4.964764</ele>
        <time>2024-04-28T09:42:10.000Z</time>
      </trkpt>
      <trkpt lat="38.146524" lon="24.002797">
        <ele>5.014284</ele>
        <time>2024-04-28T09:42:11.000Z</time>
      </trkpt>
      <trkpt lat="38.146497" lon="24.002686">
        <ele>5.054511</ele>
        <time>2024-04-28T09:42:12.000Z</time>
      </trkpt>
      <trkpt lat="38.146449" lon="24.002593">
        <ele>5.104485</ele>
        <time>2024-04-28T09:42:13.000Z</time>
      </trkpt>
      <trkpt lat="38.146374" lon="24.002476">
        <ele>5.169761</ele>
        <time>2024-04-28T09:42:14.000Z</time>
      </trkpt>
      <trkpt lat="38.146364" lon="24.00248">
        <ele>5.169751</ele>
        <time>2024-04-28T09:42:14.000Z</time>
      </trkpt>
      <trkpt lat="38.146629" lon="24.002073">
        <ele>5.384458</ele>
        <time>2024-04-28T09:42:19.000Z</time>
      </trkpt>
      <trkpt lat="38.146701" lon="24.001957">
        <ele>5.450828</ele>
        <time>2024-04-28T09:42:20.000Z</time>
      </trkpt>
      <trkpt lat="38.146803" lon="24.001792">
        <ele>5.533409</ele>
        <time>2024-04-28T09:42:22.000Z</time>
      </trkpt>
      <trkpt lat="38.146932" lon="24.001608">
        <ele>5.632834</ele>
        <time>2024-04-28T09:42:24.000Z</time>
      </trkpt>
      <trkpt lat="38.150531" lon="23.996123">
        <ele>7.726567</ele>
        <time>2024-04-28T09:43:26.000Z</time>
      </trkpt>
      <trkpt lat="38.150582" lon="23.996082">
        <ele>7.741998</ele>
        <time>2024-04-28T09:43:27.000Z</time>
      </trkpt>
      <trkpt lat="38.15058" lon="23.99607">
        <ele>7.741998</ele>
        <time>2024-04-28T09:43:27.000Z</time>
      </trkpt>
      <trkpt lat="38.150616" lon="23.995997">
        <ele>7.764088</ele>
        <time>2024-04-28T09:43:28.000Z</time>
      </trkpt>
      <trkpt lat="38.150689" lon="23.995906">
        <ele>7.764664</ele>
        <time>2024-04-28T09:43:29.000Z</time>
      </trkpt>
      <trkpt lat="38.150646" lon="23.995876">
        <ele>7.745089</ele>
        <time>2024-04-28T09:43:30.000Z</time>
      </trkpt>
      <trkpt lat="38.150625" lon="23.995841">
        <ele>7.731908</ele>
        <time>2024-04-28T09:43:30.000Z</time>
      </trkpt>
      <trkpt lat="38.15056" lon="23.995937">
        <ele>7.692337</ele>
        <time>2024-04-28T09:43:31.000Z</time>
      </trkpt>
      <trkpt lat="38.150515" lon="23.99602">
        <ele>7.65898</ele>
        <time>2024-04-28T09:43:32.000Z</time>
      </trkpt>
      <trkpt lat="38.150411" lon="23.996199">
        <ele>7.584978</ele>
        <time>2024-04-28T09:43:34.000Z</time>
      </trkpt>
      <trkpt lat="38.146371" lon="24.002315">
        <ele>5.114254</ele>
        <time>2024-04-28T09:44:44.000Z</time>
      </trkpt>
      <trkpt lat="38.146256" lon="24.002478">
        <ele>5.063118</ele>
        <time>2024-04-28T09:44:46.000Z</time>
      </trkpt>
      <trkpt lat="38.146041" lon="24.002789">
        <ele>4.980403</ele>
        <time>2024-04-28T09:44:50.000Z</time>
      </trkpt>
      <trkpt lat="38.145292" lon="24.00394">
        <ele>5.051853</ele>
        <time>2024-04-28T09:45:03.000Z</time>
      </trkpt>
      <trkpt lat="38.142359" lon="24.008387">
        <ele>4.322207</ele>
        <time>2024-04-28T09:45:54.000Z</time>
      </trkpt>
      <trkpt lat="38.141892" lon="24.009095">
        <ele>4.08667</ele>
        <time>2024-04-28T09:46:02.000Z</time>
      </trkpt>
      <trkpt lat="38.141309" lon="24.009954">
        <ele>3.82175</ele>
        <time>2024-04-28T09:46:12.000Z</time>
      </trkpt>
      <trkpt lat="38.141161" lon="24.010201">
        <ele>3.772359</ele>
        <time>2024-04-28T09:46:15.000Z</time>
      </trkpt>
      <trkpt lat="38.14108" lon="24.010293">
        <ele>3.751263</ele>
        <time>2024-04-28T09:46:16.000Z</time>
      </trkpt>
      <trkpt lat="38.140789" lon="24.010767">
        <ele>3.658684</ele>
        <time>2024-04-28T09:46:21.000Z</time>
      </trkpt>
      <trkpt lat="38.140612" lon="24.011025">
        <ele>3.60587</ele>
        <time>2024-04-28T09:46:24.000Z</time>
      </trkpt>
      <trkpt lat="38.14061" lon="24.011019">
        <ele>3.60501</ele>
        <time>2024-04-28T09:46:24.000Z</time>
      </trkpt>
      <trkpt lat="38.140536" lon="24.011131">
        <ele>3.582462</ele>
        <time>2024-04-28T09:46:25.000Z</time>
      </trkpt>
      <trkpt lat="38.140313" lon="24.011486">
        <ele>3.512685</ele>
        <time>2024-04-28T09:46:29.000Z</time>
      </trkpt>
      <trkpt lat="38.140114" lon="24.011776">
        <ele>3.415715</ele>
        <time>2024-04-28T09:46:32.000Z</time>
      </trkpt>
      <trkpt lat="38.14007" lon="24.011838">
        <ele>3.392337</ele>
        <time>2024-04-28T09:46:33.000Z</time>
      </trkpt>
      <trkpt lat="38.13962" lon="24.012516">
        <ele>3.160031</ele>
        <time>2024-04-28T09:46:41.000Z</time>
      </trkpt>
      <trkpt lat="38.139083" lon="24.013328">
        <ele>2.909032</ele>
        <time>2024-04-28T09:46:50.000Z</time>
      </trkpt>
      <trkpt lat="38.13909" lon="24.013331">
        <ele>2.909033</ele>
        <time>2024-04-28T09:46:50.000Z</time>
      </trkpt>
      <trkpt lat="38.138976" lon="24.013499">
        <ele>2.915222</ele>
        <time>2024-04-28T09:46:52.000Z</time>
      </trkpt>
      <trkpt lat="38.138951" lon="24.013535">
        <ele>2.916222</ele>
        <time>2024-04-28T09:46:52.000Z</time>
      </trkpt>
      <trkpt lat="38.138907" lon="24.013617">
        <ele>2.919409</ele>
        <time>2024-04-28T09:46:53.000Z</time>
      </trkpt>
      <trkpt lat="38.138889" lon="24.013664">
        <ele>2.920766</ele>
        <time>2024-04-28T09:46:53.000Z</time>
      </trkpt>
      <trkpt lat="38.138867" lon="24.013698">
        <ele>2.922097</ele>
        <time>2024-04-28T09:46:53.000Z</time>
      </trkpt>
      <trkpt lat="38.138734" lon="24.013938">
        <ele>2.929952</ele>
        <time>2024-04-28T09:46:56.000Z</time>
      </trkpt>
      <trkpt lat="38.138553" lon="24.014325">
        <ele>2.942327</ele>
        <time>2024-04-28T09:47:00.000Z</time>
      </trkpt>
      <trkpt lat="38.138543" lon="24.014348">
        <ele>2.943441</ele>
        <time>2024-04-28T09:47:00.000Z</time>
      </trkpt>
      <trkpt lat="38.138318" lon="24.014988">
        <ele>2.962658</ele>
        <time>2024-04-28T09:47:06.000Z</time>
      </trkpt>
      <trkpt lat="38.138227" lon="24.015323">
        <ele>2.976591</ele>
        <time>2024-04-28T09:47:09.000Z</time>
      </trkpt>
      <trkpt lat="38.138196" lon="24.015568">
        <ele>2.992712</ele>
        <time>2024-04-28T09:47:11.000Z</time>
      </trkpt>
      <trkpt lat="38.138182" lon="24.0156">
        <ele>2.994777</ele>
        <time>2024-04-28T09:47:11.000Z</time>
      </trkpt>
      <trkpt lat="38.138169" lon="24.015742">
        <ele>3.004886</ele>
        <time>2024-04-28T09:47:12.000Z</time>
      </trkpt>
      <trkpt lat="38.13814" lon="24.015985">
        <ele>3.021247</ele>
        <time>2024-04-28T09:47:14.000Z</time>
      </trkpt>
      <trkpt lat="38.138155" lon="24.01601">
        <ele>3.023</ele>
        <time>2024-04-28T09:47:14.000Z</time>
      </trkpt>
      <trkpt lat="38.138136" lon="24.016244">
        <ele>3.039182</ele>
        <time>2024-04-28T09:47:16.000Z</time>
      </trkpt>
      <trkpt lat="38.138126" lon="24.016278">
        <ele>3.040457</ele>
        <time>2024-04-28T09:47:16.000Z</time>
      </trkpt>
      <trkpt lat="38.138127" lon="24.016702">
        <ele>3.068855</ele>
        <time>2024-04-28T09:47:20.000Z</time>
      </trkpt>
      <trkpt lat="38.138137" lon="24.016696">
        <ele>3.068865</ele>
        <time>2024-04-28T09:47:20.000Z</time>
      </trkpt>
      <trkpt lat="38.138224" lon="24.016693">
        <ele>3.076695</ele>
        <time>2024-04-28T09:47:21.000Z</time>
      </trkpt>
      <trkpt lat="38.138228" lon="24.016686">
        <ele>3.07671</ele>
        <time>2024-04-28T09:47:21.000Z</time>
      </trkpt>
      <trkpt lat="38.138402" lon="24.016676">
        <ele>3.092656</ele>
        <time>2024-04-28T09:47:23.000Z</time>
      </trkpt>
      <trkpt lat="38.138485" lon="24.016666">
        <ele>3.098352</ele>
        <time>2024-04-28T09:47:24.000Z</time>
      </trkpt>
      <trkpt lat="38.138585" lon="24.016668">
        <ele>3.107045</ele>
        <time>2024-04-28T09:47:25.000Z</time>
      </trkpt>
      <trkpt lat="38.138574" lon="24.016667">
        <ele>3.107034</ele>
        <time>2024-04-28T09:47:25.000Z</time>
      </trkpt>
      <trkpt lat="38.138772" lon="24.016682">
        <ele>3.122889</ele>
        <time>2024-04-28T09:47:27.000Z</time>
      </trkpt>
      <trkpt lat="38.13884" lon="24.016669">
        <ele>3.125234</ele>
        <time>2024-04-28T09:47:28.000Z</time>
      </trkpt>
      <trkpt lat="38.139071" lon="24.016644">
        <ele>3.134248</ele>
        <time>2024-04-28T09:47:31.000Z</time>
      </trkpt>
      <trkpt lat="38.139212" lon="24.016624">
        <ele>3.139136</ele>
        <time>2024-04-28T09:47:33.000Z</time>
      </trkpt>
      <trkpt lat="38.139256" lon="24.016629">
        <ele>3.1408</ele>
        <time>2024-04-28T09:47:33.000Z</time>
      </trkpt>
      <trkpt lat="38.13926" lon="24.016624">
        <ele>3.140843</ele>
        <time>2024-04-28T09:47:33.000Z</time>
      </trkpt>
      <trkpt lat="38.139484" lon="24.016525">
        <ele>3.149484</ele>
        <time>2024-04-28T09:47:36.000Z</time>
      </trkpt>
      <trkpt lat="38.13984" lon="24.016362">
        <ele>3.163264</ele>
        <time>2024-04-28T09:47:40.000Z</time>
      </trkpt>
      <trkpt lat="38.139857" lon="24.016354">
        <ele>3.163689</ele>
        <time>2024-04-28T09:47:40.000Z</time>
      </trkpt>
      <trkpt lat="38.139932" lon="24.016322">
        <ele>3.166721</ele>
        <time>2024-04-28T09:47:41.000Z</time>
      </trkpt>
      <trkpt lat="38.139974" lon="24.016301">
        <ele>3.168173</ele>
        <time>2024-04-28T09:47:42.000Z</time>
      </trkpt>
      <trkpt lat="38.140062" lon="24.016262">
        <ele>3.171352</ele>
        <time>2024-04-28T09:47:43.000Z</time>
      </trkpt>
      <trkpt lat="38.140126" lon="24.016234">
        <ele>3.173737</ele>
        <time>2024-04-28T09:47:44.000Z</time>
      </trkpt>
      <trkpt lat="38.140235" lon="24.016193">
        <ele>3.177889</ele>
        <time>2024-04-28T09:47:45.000Z</time>
      </trkpt>
      <trkpt lat="38.140576" lon="24.016041">
        <ele>3.20713</ele>
        <time>2024-04-28T09:47:49.000Z</time>
      </trkpt>
      <trkpt lat="38.140661" lon="24.015994">
        <ele>3.223811</ele>
        <time>2024-04-28T09:47:50.000Z</time>
      </trkpt>
      <trkpt lat="38.140736" lon="24.015943">
        <ele>3.242335</ele>
        <time>2024-04-28T09:47:51.000Z</time>
      </trkpt>
      <trkpt lat="38.140919" lon="24.015805">
        <ele>3.283795</ele>
        <time>2024-04-28T09:47:53.000Z</time>
      </trkpt>
      <trkpt lat="38.141066" lon="24.015674">
        <ele>3.31752</ele>
        <time>2024-04-28T09:47:55.000Z</time>
      </trkpt>
      <trkpt lat="38.141257" lon="24.015524">
        <ele>3.361029</ele>
        <time>2024-04-28T09:47:57.000Z</time>
      </trkpt>
      <trkpt lat="38.141398" lon="24.015406">
        <ele>3.396844</ele>
        <time>2024-04-28T09:47:59.000Z</time>
      </trkpt>
      <trkpt lat="38.141486" lon="24.015289">
        <ele>3.420537</ele>
        <time>2024-04-28T09:48:00.000Z</time>
      </trkpt>
      <trkpt lat="38.141443" lon="24.015102">
        <ele>3.450374</ele>
        <time>2024-04-28T09:48:02.000Z</time>
      </trkpt>
      <trkpt lat="38.141441" lon="24.015026">
        <ele>3.464445</ele>
        <time>2024-04-28T09:48:03.000Z</time>
      </trkpt>
      <trkpt lat="38.141445" lon="24.014888">
        <ele>3.483602</ele>
        <time>2024-04-28T09:48:04.000Z</time>
      </trkpt>
      <trkpt lat="38.141471" lon="24.014771">
        <ele>3.503965</ele>
        <time>2024-04-28T09:48:05.000Z</time>
      </trkpt>
      <trkpt lat="38.141566" lon="24.014702">
        <ele>3.526705</ele>
        <time>2024-04-28T09:48:06.000Z</time>
      </trkpt>
      <trkpt lat="38.141607" lon="24.014663">
        <ele>3.534435</ele>
        <time>2024-04-28T09:48:07.000Z</time>
      </trkpt>
      <trkpt lat="38.145002" lon="24.01445">
        <ele>3.236434</ele>
        <time>2024-04-28T09:48:45.000Z</time>
      </trkpt>
      <trkpt lat="38.145231" lon="24.014429">
        <ele>3.214515</ele>
        <time>2024-04-28T09:48:48.000Z</time>
      </trkpt>
      <trkpt lat="38.14537" lon="24.014422">
        <ele>3.213398</ele>
        <time>2024-04-28T09:48:50.000Z</time>
      </trkpt>
      <trkpt lat="38.145486" lon="24.014419">
        <ele>3.212399</ele>
        <time>2024-04-28T09:48:51.000Z</time>
      </trkpt>
      <trkpt lat="38.145798" lon="24.014394">
        <ele>3.210006</ele>
        <time>2024-04-28T09:48:54.000Z</time>
      </trkpt>
      <trkpt lat="38.14598" lon="24.014375">
        <ele>3.20842</ele>
        <time>2024-04-28T09:48:56.000Z</time>
      </trkpt>
      <trkpt lat="38.146189" lon="24.014377">
        <ele>3.206727</ele>
        <time>2024-04-28T09:48:58.000Z</time>
      </trkpt>
      <trkpt lat="38.146279" lon="24.014368">
        <ele>3.205982</ele>
        <time>2024-04-28T09:48:59.000Z</time>
      </trkpt>
      <trkpt lat="38.146764" lon="24.014329">
        <ele>3.202098</ele>
        <time>2024-04-28T09:49:04.000Z</time>
      </trkpt>
      <trkpt lat="38.146936" lon="24.014316">
        <ele>3.200713</ele>
        <time>2024-04-28T09:49:06.000Z</time>
      </trkpt>
      <trkpt lat="38.147059" lon="24.014306">
        <ele>3.199994</ele>
        <time>2024-04-28T09:49:07.000Z</time>
      </trkpt>
      <trkpt lat="38.14743" lon="24.014289">
        <ele>3.199985</ele>
        <time>2024-04-28T09:49:11.000Z</time>
      </trkpt>
      <trkpt lat="38.148314" lon="24.014239">
        <ele>3.19996</ele>
        <time>2024-04-28T09:49:21.000Z</time>
      </trkpt>
      <trkpt lat="38.14844" lon="24.014231">
        <ele>3.199949</ele>
        <time>2024-04-28T09:49:22.000Z</time>
      </trkpt>
      <trkpt lat="38.148595" lon="24.014221">
        <ele>3.199932</ele>
        <time>2024-04-28T09:49:24.000Z</time>
      </trkpt>
      <trkpt lat="38.148914" lon="24.014185">
        <ele>3.195493</ele>
        <time>2024-04-28T09:49:28.000Z</time>
      </trkpt>
      <trkpt lat="38.149074" lon="24.014179">
        <ele>3.188923</ele>
        <time>2024-04-28T09:49:30.000Z</time>
      </trkpt>
      <trkpt lat="38.149204" lon="24.014173">
        <ele>3.182994</ele>
        <time>2024-04-28T09:49:31.000Z</time>
      </trkpt>
      <trkpt lat="38.149345" lon="24.014156">
        <ele>3.176415</ele>
        <time>2024-04-28T09:49:33.000Z</time>
      </trkpt>
      <trkpt lat="38.149672" lon="24.014146">
        <ele>3.162299</ele>
        <time>2024-04-28T09:49:37.000Z</time>
      </trkpt>
      <trkpt lat="38.150563" lon="24.014077">
        <ele>3.122606</ele>
        <time>2024-04-28T09:49:47.000Z</time>
      </trkpt>
      <trkpt lat="38.150727" lon="24.014076">
        <ele>3.114336</ele>
        <time>2024-04-28T09:49:49.000Z</time>
      </trkpt>
      <trkpt lat="38.150862" lon="24.014065">
        <ele>3.106414</ele>
        <time>2024-04-28T09:49:51.000Z</time>
      </trkpt>
      <trkpt lat="38.151177" lon="24.014045">
        <ele>3.088911</ele>
        <time>2024-04-28T09:49:55.000Z</time>
      </trkpt>
      <trkpt lat="38.154293" lon="24.013835">
        <ele>2.909851</ele>
        <time>2024-04-28T09:50:30.000Z</time>
      </trkpt>
      <trkpt lat="38.154722" lon="24.013816">
        <ele>2.875569</ele>
        <time>2024-04-28T09:50:35.000Z</time>
      </trkpt>
      <trkpt lat="38.154996" lon="24.013798">
        <ele>2.853787</ele>
        <time>2024-04-28T09:50:38.000Z</time>
      </trkpt>
      <trkpt lat="38.155471" lon="24.013785">
        <ele>2.815651</ele>
        <time>2024-04-28T09:50:43.000Z</time>
      </trkpt>
      <trkpt lat="38.155739" lon="24.013754">
        <ele>2.793621</ele>
        <time>2024-04-28T09:50:46.000Z</time>
      </trkpt>
      <trkpt lat="38.156025" lon="24.013751">
        <ele>2.774817</ele>
        <time>2024-04-28T09:50:49.000Z</time>
      </trkpt>
      <trkpt lat="38.156028" lon="24.013737">
        <ele>2.774818</ele>
        <time>2024-04-28T09:50:49.000Z</time>
      </trkpt>
      <trkpt lat="38.156262" lon="24.013735">
        <ele>2.797234</ele>
        <time>2024-04-28T09:50:52.000Z</time>
      </trkpt>
      <trkpt lat="38.15636" lon="24.01373">
        <ele>2.807485</ele>
        <time>2024-04-28T09:50:53.000Z</time>
      </trkpt>
      <trkpt lat="38.156528" lon="24.013725">
        <ele>2.822872</ele>
        <time>2024-04-28T09:50:55.000Z</time>
      </trkpt>
      <trkpt lat="38.156674" lon="24.013713">
        <ele>2.838172</ele>
        <time>2024-04-28T09:50:57.000Z</time>
      </trkpt>
      <trkpt lat="38.156679" lon="24.013709">
        <ele>2.838178</ele>
        <time>2024-04-28T09:50:57.000Z</time>
      </trkpt>
      <trkpt lat="38.156832" lon="24.013698">
        <ele>2.852416</ele>
        <time>2024-04-28T09:50:59.000Z</time>
      </trkpt>
      <trkpt lat="38.157586" lon="24.013668">
        <ele>2.926619</ele>
        <time>2024-04-28T09:51:07.000Z</time>
      </trkpt>
      <trkpt lat="38.157783" lon="24.013645">
        <ele>2.945734</ele>
        <time>2024-04-28T09:51:09.000Z</time>
      </trkpt>
      <trkpt lat="38.158028" lon="24.013639">
        <ele>3.066994</ele>
        <time>2024-04-28T09:51:12.000Z</time>
      </trkpt>
      <trkpt lat="38.158244" lon="24.013617">
        <ele>3.185956</ele>
        <time>2024-04-28T09:51:14.000Z</time>
      </trkpt>
      <trkpt lat="38.158326" lon="24.013626">
        <ele>3.232032</ele>
        <time>2024-04-28T09:51:15.000Z</time>
      </trkpt>
      <trkpt lat="38.158606" lon="24.013599">
        <ele>3.37887</ele>
        <time>2024-04-28T09:51:18.000Z</time>
      </trkpt>
      <trkpt lat="38.158849" lon="24.013582">
        <ele>3.511769</ele>
        <time>2024-04-28T09:51:21.000Z</time>
      </trkpt>
      <trkpt lat="38.158862" lon="24.013588">
        <ele>3.516577</ele>
        <time>2024-04-28T09:51:21.000Z</time>
      </trkpt>
      <trkpt lat="38.159005" lon="24.013572">
        <ele>3.590014</ele>
        <time>2024-04-28T09:51:23.000Z</time>
      </trkpt>
      <trkpt lat="38.159088" lon="24.013565">
        <ele>3.638258</ele>
        <time>2024-04-28T09:51:24.000Z</time>
      </trkpt>
      <trkpt lat="38.15943" lon="24.013553">
        <ele>3.823186</ele>
        <time>2024-04-28T09:51:28.000Z</time>
      </trkpt>
      <trkpt lat="38.159618" lon="24.013536">
        <ele>3.913709</ele>
        <time>2024-04-28T09:51:30.000Z</time>
      </trkpt>
      <trkpt lat="38.159748" lon="24.013523">
        <ele>3.94939</ele>
        <time>2024-04-28T09:51:31.000Z</time>
      </trkpt>
      <trkpt lat="38.159848" lon="24.013524">
        <ele>3.978206</ele>
        <time>2024-04-28T09:51:32.000Z</time>
      </trkpt>
      <trkpt lat="38.160253" lon="24.013503">
        <ele>4.082354</ele>
        <time>2024-04-28T09:51:37.000Z</time>
      </trkpt>
      <trkpt lat="38.160355" lon="24.013488">
        <ele>4.108788</ele>
        <time>2024-04-28T09:51:38.000Z</time>
      </trkpt>
      <trkpt lat="38.160512" lon="24.013483">
        <ele>4.151073</ele>
        <time>2024-04-28T09:51:40.000Z</time>
      </trkpt>
      <trkpt lat="38.160504" lon="24.013458">
        <ele>4.154416</ele>
        <time>2024-04-28T09:51:40.000Z</time>
      </trkpt>
      <trkpt lat="38.160503" lon="24.013393">
        <ele>4.167093</ele>
        <time>2024-04-28T09:51:41.000Z</time>
      </trkpt>
      <trkpt lat="38.160493" lon="24.012867">
        <ele>4.278194</ele>
        <time>2024-04-28T09:51:46.000Z</time>
      </trkpt>
      <trkpt lat="38.160476" lon="24.012705">
        <ele>4.312897</ele>
        <time>2024-04-28T09:51:47.000Z</time>
      </trkpt>
      <trkpt lat="38.160475" lon="24.012528">
        <ele>4.349649</ele>
        <time>2024-04-28T09:51:49.000Z</time>
      </trkpt>
      <trkpt lat="38.160479" lon="24.012358">
        <ele>4.383719</ele>
        <time>2024-04-28T09:51:50.000Z</time>
      </trkpt>
      <trkpt lat="38.160452" lon="24.011906">
        <ele>4.271764</ele>
        <time>2024-04-28T09:51:54.000Z</time>
      </trkpt>
      <trkpt lat="38.160455" lon="24.011696">
        <ele>4.219686</ele>
        <time>2024-04-28T09:51:56.000Z</time>
      </trkpt>
      <trkpt lat="38.160459" lon="24.011541">
        <ele>4.180758</ele>
        <time>2024-04-28T09:51:57.000Z</time>
      </trkpt>
      <trkpt lat="38.160455" lon="24.011457">
        <ele>4.160532</ele>
        <time>2024-04-28T09:51:58.000Z</time>
      </trkpt>
      <trkpt lat="38.160391" lon="24.011456">
        <ele>4.139236</ele>
        <time>2024-04-28T09:51:59.000Z</time>
      </trkpt>
      <trkpt lat="38.160199" lon="24.011421">
        <ele>4.078852</ele>
        <time>2024-04-28T09:52:01.000Z</time>
      </trkpt>
      <trkpt lat="38.160057" lon="24.011443">
        <ele>4.033175</ele>
        <time>2024-04-28T09:52:03.000Z</time>
      </trkpt>
      <trkpt lat="38.159875" lon="24.011455">
        <ele>3.973669</ele>
        <time>2024-04-28T09:52:05.000Z</time>
      </trkpt>
      <trkpt lat="38.159805" lon="24.011446">
        <ele>3.951479</ele>
        <time>2024-04-28T09:52:06.000Z</time>
      </trkpt>
      <trkpt lat="38.159649" lon="24.011469">
        <ele>3.904839</ele>
        <time>2024-04-28T09:52:08.000Z</time>
      </trkpt>
      <trkpt lat="38.159302" lon="24.011491">
        <ele>3.79799</ele>
        <time>2024-04-28T09:52:12.000Z</time>
      </trkpt>
      <trkpt lat="38.159039" lon="24.011495">
        <ele>3.755226</ele>
        <time>2024-04-28T09:52:15.000Z</time>
      </trkpt>
      <trkpt lat="38.158987" lon="24.011499">
        <ele>3.7458</ele>
        <time>2024-04-28T09:52:16.000Z</time>
      </trkpt>
      <trkpt lat="38.158865" lon="24.011504">
        <ele>3.722704</ele>
        <time>2024-04-28T09:52:17.000Z</time>
      </trkpt>
      <trkpt lat="38.158499" lon="24.011525">
        <ele>3.662122</ele>
        <time>2024-04-28T09:52:21.000Z</time>
      </trkpt>
      <trkpt lat="38.158313" lon="24.011551">
        <ele>3.628241</ele>
        <time>2024-04-28T09:52:23.000Z</time>
      </trkpt>
      <trkpt lat="38.158156" lon="24.011554">
        <ele>3.602056</ele>
        <time>2024-04-28T09:52:25.000Z</time>
      </trkpt>
      <trkpt lat="38.158017" lon="24.011559">
        <ele>3.580685</ele>
        <time>2024-04-28T09:52:27.000Z</time>
      </trkpt>
      <trkpt lat="38.157675" lon="24.011577">
        <ele>3.521801</ele>
        <time>2024-04-28T09:52:31.000Z</time>
      </trkpt>
      <trkpt lat="38.157539" lon="24.011589">
        <ele>3.499572</ele>
        <time>2024-04-28T09:52:33.000Z</time>
      </trkpt>
      <trkpt lat="38.157328" lon="24.011599">
        <ele>3.484929</ele>
        <time>2024-04-28T09:52:35.000Z</time>
      </trkpt>
      <trkpt lat="38.157187" lon="24.011609">
        <ele>3.475335</ele>
        <time>2024-04-28T09:52:37.000Z</time>
      </trkpt>
      <trkpt lat="38.156847" lon="24.011636">
        <ele>3.452976</ele>
        <time>2024-04-28T09:52:41.000Z</time>
      </trkpt>
      <trkpt lat="38.156781" lon="24.011639">
        <ele>3.448322</ele>
        <time>2024-04-28T09:52:42.000Z</time>
      </trkpt>
      <trkpt lat="38.156479" lon="24.011643">
        <ele>3.428806</ele>
        <time>2024-04-28T09:52:45.000Z</time>
      </trkpt>
      <trkpt lat="38.156428" lon="24.011646">
        <ele>3.425213</ele>
        <time>2024-04-28T09:52:46.000Z</time>
      </trkpt>
      <trkpt lat="38.156016" lon="24.011685">
        <ele>3.397537</ele>
        <time>2024-04-28T09:52:51.000Z</time>
      </trkpt>
      <trkpt lat="38.156005" lon="24.011687">
        <ele>3.396728</ele>
        <time>2024-04-28T09:52:51.000Z</time>
      </trkpt>
      <trkpt lat="38.155733" lon="24.011686">
        <ele>3.379742</ele>
        <time>2024-04-28T09:52:54.000Z</time>
      </trkpt>
      <trkpt lat="38.155678" lon="24.01169">
        <ele>3.378235</ele>
        <time>2024-04-28T09:52:55.000Z</time>
      </trkpt>
      <trkpt lat="38.155224" lon="24.011726">
        <ele>3.36589</ele>
        <time>2024-04-28T09:53:00.000Z</time>
      </trkpt>
      <trkpt lat="38.155178" lon="24.011723">
        <ele>3.364709</ele>
        <time>2024-04-28T09:53:01.000Z</time>
      </trkpt>
      <trkpt lat="38.154961" lon="24.011745">
        <ele>3.358652</ele>
        <time>2024-04-28T09:53:03.000Z</time>
      </trkpt>
      <trkpt lat="38.15479" lon="24.011748">
        <ele>3.354168</ele>
        <time>2024-04-28T09:53:05.000Z</time>
      </trkpt>
      <trkpt lat="38.153614" lon="24.011825">
        <ele>3.369229</ele>
        <time>2024-04-28T09:53:18.000Z</time>
      </trkpt>
      <trkpt lat="38.1536" lon="24.011833">
        <ele>3.371114</ele>
        <time>2024-04-28T09:53:18.000Z</time>
      </trkpt>
      <trkpt lat="38.153407" lon="24.011837">
        <ele>3.392723</ele>
        <time>2024-04-28T09:53:20.000Z</time>
      </trkpt>
      <trkpt lat="38.153381" lon="24.011831">
        <ele>3.395157</ele>
        <time>2024-04-28T09:53:20.000Z</time>
      </trkpt>
      <trkpt lat="38.151633" lon="24.011949">
        <ele>3.502014</ele>
        <time>2024-04-28T09:53:39.000Z</time>
      </trkpt>
      <trkpt lat="38.151527" lon="24.011947">
        <ele>3.49663</ele>
        <time>2024-04-28T09:53:40.000Z</time>
      </trkpt>
      <trkpt lat="38.151102" lon="24.011987">
        <ele>3.473655</ele>
        <time>2024-04-28T09:53:45.000Z</time>
      </trkpt>
      <trkpt lat="38.151022" lon="24.011999">
        <ele>3.469605</ele>
        <time>2024-04-28T09:53:46.000Z</time>
      </trkpt>
      <trkpt lat="38.150537" lon="24.012028">
        <ele>3.443411</ele>
        <time>2024-04-28T09:53:51.000Z</time>
      </trkpt>
      <trkpt lat="38.15054" lon="24.012033">
        <ele>3.443399</ele>
        <time>2024-04-28T09:53:51.000Z</time>
      </trkpt>
      <trkpt lat="38.150337" lon="24.012047">
        <ele>3.43916</ele>
        <time>2024-04-28T09:53:53.000Z</time>
      </trkpt>
      <trkpt lat="38.150206" lon="24.01204">
        <ele>3.451876</ele>
        <time>2024-04-28T09:53:54.000Z</time>
      </trkpt>
      <trkpt lat="38.149732" lon="24.012074">
        <ele>3.505326</ele>
        <time>2024-04-28T09:53:59.000Z</time>
      </trkpt>
      <trkpt lat="38.149711" lon="24.01208">
        <ele>3.507985</ele>
        <time>2024-04-28T09:53:59.000Z</time>
      </trkpt>
      <trkpt lat="38.149389" lon="24.01209">
        <ele>3.543923</ele>
        <time>2024-04-28T09:54:03.000Z</time>
      </trkpt>
      <trkpt lat="38.149346" lon="24.012099">
        <ele>3.548943</ele>
        <time>2024-04-28T09:54:03.000Z</time>
      </trkpt>
      <trkpt lat="38.148953" lon="24.012118">
        <ele>3.59313</ele>
        <time>2024-04-28T09:54:07.000Z</time>
      </trkpt>
      <trkpt lat="38.148933" lon="24.012127">
        <ele>3.594801</ele>
        <time>2024-04-28T09:54:07.000Z</time>
      </trkpt>
      <trkpt lat="38.148762" lon="24.012133">
        <ele>3.613894</ele>
        <time>2024-04-28T09:54:09.000Z</time>
      </trkpt>
      <trkpt lat="38.148559" lon="24.012145">
        <ele>3.635736</ele>
        <time>2024-04-28T09:54:11.000Z</time>
      </trkpt>
      <trkpt lat="38.148155" lon="24.012168">
        <ele>3.671714</ele>
        <time>2024-04-28T09:54:15.000Z</time>
      </trkpt>
      <trkpt lat="38.148137" lon="24.012171">
        <ele>3.67438</ele>
        <time>2024-04-28T09:54:15.000Z</time>
      </trkpt>
      <trkpt lat="38.147966" lon="24.012188">
        <ele>3.688672</ele>
        <time>2024-04-28T09:54:17.000Z</time>
      </trkpt>
      <trkpt lat="38.14732" lon="24.012218">
        <ele>3.746033</ele>
        <time>2024-04-28T09:54:24.000Z</time>
      </trkpt>
      <trkpt lat="38.147176" lon="24.012236">
        <ele>3.758916</ele>
        <time>2024-04-28T09:54:26.000Z</time>
      </trkpt>
      <trkpt lat="38.146916" lon="24.012244">
        <ele>3.782976</ele>
        <time>2024-04-28T09:54:29.000Z</time>
      </trkpt>
      <trkpt lat="38.146576" lon="24.012279">
        <ele>3.793769</ele>
        <time>2024-04-28T09:54:33.000Z</time>
      </trkpt>
      <trkpt lat="38.146389" lon="24.01228">
        <ele>3.792858</ele>
        <time>2024-04-28T09:54:35.000Z</time>
      </trkpt>
      <trkpt lat="38.146097" lon="24.012308">
        <ele>3.791449</ele>
        <time>2024-04-28T09:54:38.000Z</time>
      </trkpt>
      <trkpt lat="38.145791" lon="24.012311">
        <ele>3.790035</ele>
        <time>2024-04-28T09:54:41.000Z</time>
      </trkpt>
      <trkpt lat="38.145671" lon="24.012322">
        <ele>3.789466</ele>
        <time>2024-04-28T09:54:42.000Z</time>
      </trkpt>
      <trkpt lat="38.140562" lon="24.012643">
        <ele>3.632684</ele>
        <time>2024-04-28T09:55:39.000Z</time>
      </trkpt>
      <trkpt lat="38.140326" lon="24.012778">
        <ele>3.606489</ele>
        <time>2024-04-28T09:55:42.000Z</time>
      </trkpt>
      <trkpt lat="38.140175" lon="24.012997">
        <ele>3.582727</ele>
        <time>2024-04-28T09:55:45.000Z</time>
      </trkpt>
      <trkpt lat="38.140013" lon="24.013347">
        <ele>3.550216</ele>
        <time>2024-04-28T09:55:49.000Z</time>
      </trkpt>
      <trkpt lat="38.139832" lon="24.013861">
        <ele>3.457483</ele>
        <time>2024-04-28T09:55:54.000Z</time>
      </trkpt>
      <trkpt lat="38.139823" lon="24.013882">
        <ele>3.451125</ele>
        <time>2024-04-28T09:55:54.000Z</time>
      </trkpt>
      <trkpt lat="38.139815" lon="24.014149">
        <ele>3.39167</ele>
        <time>2024-04-28T09:55:56.000Z</time>
      </trkpt>
      <trkpt lat="38.139817" lon="24.014171">
        <ele>3.385728</ele>
        <time>2024-04-28T09:55:56.000Z</time>
      </trkpt>
      <trkpt lat="38.139868" lon="24.014358">
        <ele>3.343943</ele>
        <time>2024-04-28T09:55:58.000Z</time>
      </trkpt>
      <trkpt lat="38.139896" lon="24.014487">
        <ele>3.315668</ele>
        <time>2024-04-28T09:55:59.000Z</time>
      </trkpt>
      <trkpt lat="38.139893" lon="24.014502">
        <ele>3.312215</ele>
        <time>2024-04-28T09:55:59.000Z</time>
      </trkpt>
      <trkpt lat="38.140156" lon="24.014973">
        <ele>3.185784</ele>
        <time>2024-04-28T09:56:04.000Z</time>
      </trkpt>
      <trkpt lat="38.140272" lon="24.015083">
        <ele>3.147698</ele>
        <time>2024-04-28T09:56:06.000Z</time>
      </trkpt>
      <trkpt lat="38.140272" lon="24.015083">
        <ele>3.147697</ele>
        <time>2024-04-28T09:56:06.000Z</time>
      </trkpt>
      <trkpt lat="38.140388" lon="24.015254">
        <ele>3.096619</ele>
        <time>2024-04-28T09:56:08.000Z</time>
      </trkpt>
      <trkpt lat="38.140451" lon="24.015354">
        <ele>3.069191</ele>
        <time>2024-04-28T09:56:09.000Z</time>
      </trkpt>
      <trkpt lat="38.140515" lon="24.01548">
        <ele>3.03692</ele>
        <time>2024-04-28T09:56:10.000Z</time>
      </trkpt>
      <trkpt lat="38.140524" lon="24.015487">
        <ele>3.035542</ele>
        <time>2024-04-28T09:56:10.000Z</time>
      </trkpt>
      <trkpt lat="38.140576" lon="24.015566">
        <ele>3.027849</ele>
        <time>2024-04-28T09:56:11.000Z</time>
      </trkpt>
      <trkpt lat="38.140588" lon="24.01564">
        <ele>3.025026</ele>
        <time>2024-04-28T09:56:12.000Z</time>
      </trkpt>
      <trkpt lat="38.140654" lon="24.015772">
        <ele>3.019105</ele>
        <time>2024-04-28T09:56:13.000Z</time>
      </trkpt>
      <trkpt lat="38.140677" lon="24.0158">
        <ele>3.01778</ele>
        <time>2024-04-28T09:56:13.000Z</time>
      </trkpt>
      <trkpt lat="38.140747" lon="24.015944">
        <ele>3.010875</ele>
        <time>2024-04-28T09:56:14.000Z</time>
      </trkpt>
      <trkpt lat="38.140653" lon="24.015998">
        <ele>3.006144</ele>
        <time>2024-04-28T09:56:15.000Z</time>
      </trkpt>
      <trkpt lat="38.140579" lon="24.016025">
        <ele>3.001884</ele>
        <time>2024-04-28T09:56:16.000Z</time>
      </trkpt>
      <trkpt lat="38.140233" lon="24.016191">
        <ele>2.983254</ele>
        <time>2024-04-28T09:56:20.000Z</time>
      </trkpt>
      <trkpt lat="38.140117" lon="24.016245">
        <ele>2.977456</ele>
        <time>2024-04-28T09:56:21.000Z</time>
      </trkpt>
      <trkpt lat="38.140052" lon="24.016266">
        <ele>2.974147</ele>
        <time>2024-04-28T09:56:22.000Z</time>
      </trkpt>
      <trkpt lat="38.139967" lon="24.0163">
        <ele>2.969737</ele>
        <time>2024-04-28T09:56:23.000Z</time>
      </trkpt>
      <trkpt lat="38.139932" lon="24.016318">
        <ele>2.967711</ele>
        <time>2024-04-28T09:56:23.000Z</time>
      </trkpt>
      <trkpt lat="38.139865" lon="24.016363">
        <ele>2.963496</ele>
        <time>2024-04-28T09:56:24.000Z</time>
      </trkpt>
      <trkpt lat="38.13984" lon="24.016367">
        <ele>2.962909</ele>
        <time>2024-04-28T09:56:24.000Z</time>
      </trkpt>
      <trkpt lat="38.139497" lon="24.016523">
        <ele>2.943741</ele>
        <time>2024-04-28T09:56:28.000Z</time>
      </trkpt>
      <trkpt lat="38.139257" lon="24.016627">
        <ele>2.940618</ele>
        <time>2024-04-28T09:56:31.000Z</time>
      </trkpt>
      <trkpt lat="38.139266" lon="24.016616">
        <ele>2.940618</ele>
        <time>2024-04-28T09:56:31.000Z</time>
      </trkpt>
      <trkpt lat="38.139212" lon="24.016634">
        <ele>2.940502</ele>
        <time>2024-04-28T09:56:32.000Z</time>
      </trkpt>
      <trkpt lat="38.139077" lon="24.016636">
        <ele>2.940184</ele>
        <time>2024-04-28T09:56:34.000Z</time>
      </trkpt>
      <trkpt lat="38.138841" lon="24.01667">
        <ele>2.939611</ele>
        <time>2024-04-28T09:56:37.000Z</time>
      </trkpt>
      <trkpt lat="38.138765" lon="24.016671">
        <ele>2.939448</ele>
        <time>2024-04-28T09:56:38.000Z</time>
      </trkpt>
      <trkpt lat="38.138572" lon="24.016674">
        <ele>2.939017</ele>
        <time>2024-04-28T09:56:40.000Z</time>
      </trkpt>
      <trkpt lat="38.138582" lon="24.016671">
        <ele>2.939015</ele>
        <time>2024-04-28T09:56:40.000Z</time>
      </trkpt>
      <trkpt lat="38.138427" lon="24.016634">
        <ele>2.938664</ele>
        <time>2024-04-28T09:56:42.000Z</time>
      </trkpt>
      <trkpt lat="38.138251" lon="24.016523">
        <ele>2.938179</ele>
        <time>2024-04-28T09:56:44.000Z</time>
      </trkpt>
      <trkpt lat="38.138229" lon="24.016477">
        <ele>2.938083</ele>
        <time>2024-04-28T09:56:44.000Z</time>
      </trkpt>
      <trkpt lat="38.138235" lon="24.01621">
        <ele>2.937585</ele>
        <time>2024-04-28T09:56:46.000Z</time>
      </trkpt>
      <trkpt lat="38.138241" lon="24.016029">
        <ele>2.937235</ele>
        <time>2024-04-28T09:56:48.000Z</time>
      </trkpt>
      <trkpt lat="38.138349" lon="24.015301">
        <ele>2.939629</ele>
        <time>2024-04-28T09:56:54.000Z</time>
      </trkpt>
      <trkpt lat="38.138379" lon="24.015149">
        <ele>2.940523</ele>
        <time>2024-04-28T09:56:55.000Z</time>
      </trkpt>
      <trkpt lat="38.138493" lon="24.014736">
        <ele>2.942993</ele>
        <time>2024-04-28T09:56:59.000Z</time>
      </trkpt>
      <trkpt lat="38.138512" lon="24.014698">
        <ele>2.943218</ele>
        <time>2024-04-28T09:56:59.000Z</time>
      </trkpt>
      <trkpt lat="38.138706" lon="24.014257">
        <ele>2.946003</ele>
        <time>2024-04-28T09:57:03.000Z</time>
      </trkpt>
      <trkpt lat="38.138852" lon="24.013927">
        <ele>2.948137</ele>
        <time>2024-04-28T09:57:06.000Z</time>
      </trkpt>
      <trkpt lat="38.138926" lon="24.013802">
        <ele>2.949066</ele>
        <time>2024-04-28T09:57:07.000Z</time>
      </trkpt>
      <trkpt lat="38.138931" lon="24.013798">
        <ele>2.949077</ele>
        <time>2024-04-28T09:57:07.000Z</time>
      </trkpt>
      <trkpt lat="38.138951" lon="24.013754">
        <ele>2.949331</ele>
        <time>2024-04-28T09:57:07.000Z</time>
      </trkpt>
      <trkpt lat="38.138981" lon="24.013723">
        <ele>2.954067</ele>
        <time>2024-04-28T09:57:07.000Z</time>
      </trkpt>
      <trkpt lat="38.139068" lon="24.013586">
        <ele>2.994652</ele>
        <time>2024-04-28T09:57:09.000Z</time>
      </trkpt>
      <trkpt lat="38.139161" lon="24.013436">
        <ele>3.036335</ele>
        <time>2024-04-28T09:57:11.000Z</time>
      </trkpt>
      <trkpt lat="38.139167" lon="24.013444">
        <ele>3.036324</ele>
        <time>2024-04-28T09:57:11.000Z</time>
      </trkpt>
      <trkpt lat="38.139296" lon="24.013233">
        <ele>3.098778</ele>
        <time>2024-04-28T09:57:13.000Z</time>
      </trkpt>
      <trkpt lat="38.139319" lon="24.013194">
        <ele>3.108431</ele>
        <time>2024-04-28T09:57:13.000Z</time>
      </trkpt>
      <trkpt lat="38.139384" lon="24.013086">
        <ele>3.143561</ele>
        <time>2024-04-28T09:57:14.000Z</time>
      </trkpt>
      <trkpt lat="38.13965" lon="24.012702">
        <ele>3.25952</ele>
        <time>2024-04-28T09:57:18.000Z</time>
      </trkpt>
      <trkpt lat="38.140134" lon="24.011976">
        <ele>3.479523</ele>
        <time>2024-04-28T09:57:26.000Z</time>
      </trkpt>
      <trkpt lat="38.140299" lon="24.011701">
        <ele>3.508813</ele>
        <time>2024-04-28T09:57:29.000Z</time>
      </trkpt>
      <trkpt lat="38.140412" lon="24.011538">
        <ele>3.528105</ele>
        <time>2024-04-28T09:57:31.000Z</time>
      </trkpt>
      <trkpt lat="38.140608" lon="24.011224">
        <ele>3.562335</ele>
        <time>2024-04-28T09:57:35.000Z</time>
      </trkpt>
      <trkpt lat="38.140622" lon="24.011236">
        <ele>3.56232</ele>
        <time>2024-04-28T09:57:35.000Z</time>
      </trkpt>
      <trkpt lat="38.140617" lon="24.011236">
        <ele>3.562331</ele>
        <time>2024-04-28T09:57:35.000Z</time>
      </trkpt>
      <trkpt lat="38.141268" lon="24.010243">
        <ele>3.672505</ele>
        <time>2024-04-28T09:57:46.000Z</time>
      </trkpt>
      <trkpt lat="38.141264" lon="24.010235">
        <ele>3.672783</ele>
        <time>2024-04-28T09:57:46.000Z</time>
      </trkpt>
      <trkpt lat="38.141427" lon="24.009987">
        <ele>3.730534</ele>
        <time>2024-04-28T09:57:49.000Z</time>
      </trkpt>
      <trkpt lat="38.141692" lon="24.009592">
        <ele>3.825548</ele>
        <time>2024-04-28T09:57:54.000Z</time>
      </trkpt>
      <trkpt lat="38.141759" lon="24.009487">
        <ele>3.855093</ele>
        <time>2024-04-28T09:57:55.000Z</time>
      </trkpt>
      <trkpt lat="38.14176" lon="24.009478">
        <ele>3.855077</ele>
        <time>2024-04-28T09:57:55.000Z</time>
      </trkpt>
      <trkpt lat="38.141909" lon="24.009255">
        <ele>3.90713</ele>
        <time>2024-04-28T09:57:58.000Z</time>
      </trkpt>
      <trkpt lat="38.142214" lon="24.0088">
        <ele>4.018383</ele>
        <time>2024-04-28T09:58:03.000Z</time>
      </trkpt>
      <trkpt lat="38.142417" lon="24.00849">
        <ele>4.093227</ele>
        <time>2024-04-28T09:58:07.000Z</time>
      </trkpt>
      <trkpt lat="38.142401" lon="24.008504">
        <ele>4.093223</ele>
        <time>2024-04-28T09:58:07.000Z</time>
      </trkpt>
      <trkpt lat="38.142741" lon="24.008008">
        <ele>4.156874</ele>
        <time>2024-04-28T09:58:13.000Z</time>
      </trkpt>
      <trkpt lat="38.142824" lon="24.007879">
        <ele>4.171683</ele>
        <time>2024-04-28T09:58:14.000Z</time>
      </trkpt>
      <trkpt lat="38.142838" lon="24.007827">
        <ele>4.177046</ele>
        <time>2024-04-28T09:58:14.000Z</time>
      </trkpt>
      <trkpt lat="38.142992" lon="24.007628">
        <ele>4.203323</ele>
        <time>2024-04-28T09:58:16.000Z</time>
      </trkpt>
      <trkpt lat="38.145747" lon="24.003427">
        <ele>4.777891</ele>
        <time>2024-04-28T09:59:04.000Z</time>
      </trkpt>
      <trkpt lat="38.146159" lon="24.002803">
        <ele>5.031353</ele>
        <time>2024-04-28T09:59:11.000Z</time>
      </trkpt>
      <trkpt lat="38.146143" lon="24.002797">
        <ele>5.031355</ele>
        <time>2024-04-28T09:59:11.000Z</time>
      </trkpt>
      <trkpt lat="38.146232" lon="24.002681">
        <ele>5.093057</ele>
        <time>2024-04-28T09:59:12.000Z</time>
      </trkpt>
      <trkpt lat="38.146342" lon="24.002528">
        <ele>5.184491</ele>
        <time>2024-04-28T09:59:14.000Z</time>
      </trkpt>
      <trkpt lat="38.146366" lon="24.002486">
        <ele>5.208012</ele>
        <time>2024-04-28T09:59:14.000Z</time>
      </trkpt>
      <trkpt lat="38.146336" lon="24.002479">
        <ele>5.219744</ele>
        <time>2024-04-28T09:59:14.000Z</time>
      </trkpt>
      <trkpt lat="38.146328" lon="24.002525">
        <ele>5.239616</ele>
        <time>2024-04-28T09:59:14.000Z</time>
      </trkpt>
      <trkpt lat="38.146331" lon="24.002528">
        <ele>5.239617</ele>
        <time>2024-04-28T09:59:14.000Z</time>
      </trkpt>
      <trkpt lat="38.146367" lon="24.002481">
        <ele>5.263138</ele>
        <time>2024-04-28T09:59:15.000Z</time>
      </trkpt>
      <trkpt lat="38.14662" lon="24.00208">
        <ele>5.479616</ele>
        <time>2024-04-28T09:59:19.000Z</time>
      </trkpt>
      <trkpt lat="38.146708" lon="24.001955">
        <ele>5.54656</ele>
        <time>2024-04-28T09:59:20.000Z</time>
      </trkpt>
      <trkpt lat="38.146807" lon="24.001802">
        <ele>5.629826</ele>
        <time>2024-04-28T09:59:22.000Z</time>
      </trkpt>
      <trkpt lat="38.146928" lon="24.001614">
        <ele>5.730079</ele>
        <time>2024-04-28T09:59:24.000Z</time>
      </trkpt>
      <trkpt lat="38.150539" lon="23.996122">
        <ele>7.699217</ele>
        <time>2024-04-28T10:00:27.000Z</time>
      </trkpt>
      <trkpt lat="38.150565" lon="23.996079">
        <ele>7.678264</ele>
        <time>2024-04-28T10:00:27.000Z</time>
      </trkpt>
      <trkpt lat="38.150574" lon="23.99608">
        <ele>7.678261</ele>
        <time>2024-04-28T10:00:27.000Z</time>
      </trkpt>
      <trkpt lat="38.150631" lon="23.996005">
        <ele>7.648258</ele>
        <time>2024-04-28T10:00:28.000Z</time>
      </trkpt>
      <trkpt lat="38.150688" lon="23.9959">
        <ele>7.613016</ele>
        <time>2024-04-28T10:00:29.000Z</time>
      </trkpt>
      <trkpt lat="38.150651" lon="23.995873">
        <ele>7.594999</ele>
        <time>2024-04-28T10:00:29.000Z</time>
      </trkpt>
      <trkpt lat="38.150625" lon="23.995847">
        <ele>7.582875</ele>
        <time>2024-04-28T10:00:29.000Z</time>
      </trkpt>
      <trkpt lat="38.150571" lon="23.995932">
        <ele>7.54645</ele>
        <time>2024-04-28T10:00:30.000Z</time>
      </trkpt>
      <trkpt lat="38.150516" lon="23.996018">
        <ele>7.515759</ele>
        <time>2024-04-28T10:00:31.000Z</time>
      </trkpt>
      <trkpt lat="38.150398" lon="23.996194">
        <ele>7.447631</ele>
        <time>2024-04-28T10:00:33.000Z</time>
      </trkpt>
      <trkpt lat="38.146359" lon="24.002298">
        <ele>5.038799</ele>
        <time>2024-04-28T10:01:43.000Z</time>
      </trkpt>
      <trkpt lat="38.146248" lon="24.002464">
        <ele>5.003935</ele>
        <time>2024-04-28T10:01:45.000Z</time>
      </trkpt>
      <trkpt lat="38.146057" lon="24.002787">
        <ele>5.022985</ele>
        <time>2024-04-28T10:01:49.000Z</time>
      </trkpt>
      <trkpt lat="38.14529" lon="24.003935">
        <ele>5.092835</ele>
        <time>2024-04-28T10:02:02.000Z</time>
      </trkpt>
      <trkpt lat="38.142358" lon="24.008381">
        <ele>4.305883</ele>
        <time>2024-04-28T10:02:53.000Z</time>
      </trkpt>
      <trkpt lat="38.141883" lon="24.009093">
        <ele>4.091053</ele>
        <time>2024-04-28T10:03:01.000Z</time>
      </trkpt>
      <trkpt lat="38.141312" lon="24.009953">
        <ele>3.860836</ele>
        <time>2024-04-28T10:03:11.000Z</time>
      </trkpt>
      <trkpt lat="38.141164" lon="24.010193">
        <ele>3.802185</ele>
        <time>2024-04-28T10:03:14.000Z</time>
      </trkpt>
      <trkpt lat="38.141082" lon="24.010305">
        <ele>3.777135</ele>
        <time>2024-04-28T10:03:15.000Z</time>
      </trkpt>
      <trkpt lat="38.140779" lon="24.010767">
        <ele>3.667206</ele>
        <time>2024-04-28T10:03:20.000Z</time>
      </trkpt>
      <trkpt lat="38.140616" lon="24.011012">
        <ele>3.604502</ele>
        <time>2024-04-28T10:03:23.000Z</time>
      </trkpt>
      <trkpt lat="38.140607" lon="24.011017">
        <ele>3.603485</ele>
        <time>2024-04-28T10:03:23.000Z</time>
      </trkpt>
      <trkpt lat="38.140542" lon="24.011126">
        <ele>3.576709</ele>
        <time>2024-04-28T10:03:24.000Z</time>
      </trkpt>
      <trkpt lat="38.1403" lon="24.01148">
        <ele>3.466322</ele>
        <time>2024-04-28T10:03:28.000Z</time>
      </trkpt>
      <trkpt lat="38.140109" lon="24.01177">
        <ele>3.370536</ele>
        <time>2024-04-28T10:03:31.000Z</time>
      </trkpt>
      <trkpt lat="38.140066" lon="24.011841">
        <ele>3.348215</ele>
        <time>2024-04-28T10:03:32.000Z</time>
      </trkpt>
      <trkpt lat="38.139616" lon="24.012523">
        <ele>3.126437</ele>
        <time>2024-04-28T10:03:40.000Z</time>
      </trkpt>
      <trkpt lat="38.139084" lon="24.013338">
        <ele>2.965894</ele>
        <time>2024-04-28T10:03:49.000Z</time>
      </trkpt>
      <trkpt lat="38.139092" lon="24.013323">
        <ele>2.965908</ele>
        <time>2024-04-28T10:03:49.000Z</time>
      </trkpt>
      <trkpt lat="38.138976" lon="24.013501">
        <ele>2.953857</ele>
        <time>2024-04-28T10:03:51.000Z</time>
      </trkpt>
      <trkpt lat="38.138963" lon="24.013541">
        <ele>2.951889</ele>
        <time>2024-04-28T10:03:51.000Z</time>
      </trkpt>
      <trkpt lat="38.138896" lon="24.01362">
        <ele>2.945696</ele>
        <time>2024-04-28T10:03:52.000Z</time>
      </trkpt>
      <trkpt lat="38.138879" lon="24.013673">
        <ele>2.943065</ele>
        <time>2024-04-28T10:03:53.000Z</time>
      </trkpt>
      <trkpt lat="38.138856" lon="24.013713">
        <ele>2.940479</ele>
        <time>2024-04-28T10:03:53.000Z</time>
      </trkpt>
      <trkpt lat="38.138736" lon="24.013929">
        <ele>2.925166</ele>
        <time>2024-04-28T10:03:55.000Z</time>
      </trkpt>
      <trkpt lat="38.138543" lon="24.014313">
        <ele>2.901101</ele>
        <time>2024-04-28T10:03:59.000Z</time>
      </trkpt>
      <trkpt lat="38.138538" lon="24.01435">
        <ele>2.898912</ele>
        <time>2024-04-28T10:03:59.000Z</time>
      </trkpt>
      <trkpt lat="38.138318" lon="24.014991">
        <ele>2.897509</ele>
        <time>2024-04-28T10:04:05.000Z</time>
      </trkpt>
      <trkpt lat="38.138243" lon="24.015329">
        <ele>2.945614</ele>
        <time>2024-04-28T10:04:08.000Z</time>
      </trkpt>
      <trkpt lat="38.138242" lon="24.015319">
        <ele>2.945619</ele>
        <time>2024-04-28T10:04:08.000Z</time>
      </trkpt>
      <trkpt lat="38.138201" lon="24.015405">
        <ele>2.957423</ele>
        <time>2024-04-28T10:04:09.000Z</time>
      </trkpt>
      <trkpt lat="38.138135" lon="24.015462">
        <ele>2.971208</ele>
        <time>2024-04-28T10:04:10.000Z</time>
      </trkpt>
      <trkpt lat="38.138041" lon="24.015429">
        <ele>2.985107</ele>
        <time>2024-04-28T10:04:11.000Z</time>
      </trkpt>
      <trkpt lat="38.137982" lon="24.015385">
        <ele>2.998089</ele>
        <time>2024-04-28T10:04:12.000Z</time>
      </trkpt>
      <trkpt lat="38.138163" lon="24.015739">
        <ele>3.056224</ele>
        <time>2024-04-28T10:04:16.000Z</time>
      </trkpt>
      <trkpt lat="38.138146" lon="24.015988">
        <ele>3.089259</ele>
        <time>2024-04-28T10:04:18.000Z</time>
      </trkpt>
      <trkpt lat="38.13814" lon="24.016008">
        <ele>3.092796</ele>
        <time>2024-04-28T10:04:18.000Z</time>
      </trkpt>
      <trkpt lat="38.138138" lon="24.016243">
        <ele>3.125473</ele>
        <time>2024-04-28T10:04:20.000Z</time>
      </trkpt>
      <trkpt lat="38.138128" lon="24.016262">
        <ele>3.128058</ele>
        <time>2024-04-28T10:04:20.000Z</time>
      </trkpt>
      <trkpt lat="38.138138" lon="24.016703">
        <ele>3.179494</ele>
        <time>2024-04-28T10:04:24.000Z</time>
      </trkpt>
      <trkpt lat="38.138133" lon="24.0167">
        <ele>3.17949</ele>
        <time>2024-04-28T10:04:24.000Z</time>
      </trkpt>
      <trkpt lat="38.138218" lon="24.016692">
        <ele>3.174382</ele>
        <time>2024-04-28T10:04:25.000Z</time>
      </trkpt>
      <trkpt lat="38.138214" lon="24.016695">
        <ele>3.174388</ele>
        <time>2024-04-28T10:04:25.000Z</time>
      </trkpt>
      <trkpt lat="38.138416" lon="24.016669">
        <ele>3.163999</ele>
        <time>2024-04-28T10:04:27.000Z</time>
      </trkpt>
      <trkpt lat="38.138478" lon="24.016672">
        <ele>3.160293</ele>
        <time>2024-04-28T10:04:28.000Z</time>
      </trkpt>
      <trkpt lat="38.138576" lon="24.016679">
        <ele>3.154633</ele>
        <time>2024-04-28T10:04:29.000Z</time>
      </trkpt>
      <trkpt lat="38.138579" lon="24.016683">
        <ele>3.15464</ele>
        <time>2024-04-28T10:04:29.000Z</time>
      </trkpt>
      <trkpt lat="38.138776" lon="24.016681">
        <ele>3.144221</ele>
        <time>2024-04-28T10:04:31.000Z</time>
      </trkpt>
      <trkpt lat="38.138826" lon="24.016669">
        <ele>3.140619</ele>
        <time>2024-04-28T10:04:32.000Z</time>
      </trkpt>
      <trkpt lat="38.139088" lon="24.016636">
        <ele>3.126806</ele>
        <time>2024-04-28T10:04:35.000Z</time>
      </trkpt>
      <trkpt lat="38.139219" lon="24.016632">
        <ele>3.119288</ele>
        <time>2024-04-28T10:04:36.000Z</time>
      </trkpt>
      <trkpt lat="38.139258" lon="24.01663">
        <ele>3.116718</ele>
        <time>2024-04-28T10:04:36.000Z</time>
      </trkpt>
      <trkpt lat="38.139268" lon="24.016631">
        <ele>3.11666</ele>
        <time>2024-04-28T10:04:36.000Z</time>
      </trkpt>
      <trkpt lat="38.139491" lon="24.016526">
        <ele>3.103386</ele>
        <time>2024-04-28T10:04:39.000Z</time>
      </trkpt>
      <trkpt lat="38.139841" lon="24.016356">
        <ele>3.082242</ele>
        <time>2024-04-28T10:04:43.000Z</time>
      </trkpt>
      <trkpt lat="38.139868" lon="24.016358">
        <ele>3.081588</ele>
        <time>2024-04-28T10:04:43.000Z</time>
      </trkpt>
      <trkpt lat="38.139937" lon="24.016312">
        <ele>3.098185</ele>
        <time>2024-04-28T10:04:44.000Z</time>
      </trkpt>
      <trkpt lat="38.139971" lon="24.016295">
        <ele>3.106994</ele>
        <time>2024-04-28T10:04:44.000Z</time>
      </trkpt>
      <trkpt lat="38.140052" lon="24.016261">
        <ele>3.126242</ele>
        <time>2024-04-28T10:04:45.000Z</time>
      </trkpt>
      <trkpt lat="38.140112" lon="24.016231">
        <ele>3.140638</ele>
        <time>2024-04-28T10:04:46.000Z</time>
      </trkpt>
      <trkpt lat="38.140236" lon="24.016197">
        <ele>3.165889</ele>
        <time>2024-04-28T10:04:47.000Z</time>
      </trkpt>
      <trkpt lat="38.140579" lon="24.016027">
        <ele>3.247091</ele>
        <time>2024-04-28T10:04:51.000Z</time>
      </trkpt>
      <trkpt lat="38.140663" lon="24.015988">
        <ele>3.265657</ele>
        <time>2024-04-28T10:04:52.000Z</time>
      </trkpt>
      <trkpt lat="38.140748" lon="24.015943">
        <ele>3.286291</ele>
        <time>2024-04-28T10:04:53.000Z</time>
      </trkpt>
      <trkpt lat="38.140932" lon="24.015806">
        <ele>3.332464</ele>
        <time>2024-04-28T10:04:55.000Z</time>
      </trkpt>
      <trkpt lat="38.141069" lon="24.015686">
        <ele>3.370034</ele>
        <time>2024-04-28T10:04:57.000Z</time>
      </trkpt>
      <trkpt lat="38.141261" lon="24.015522">
        <ele>3.418506</ele>
        <time>2024-04-28T10:05:00.000Z</time>
      </trkpt>
      <trkpt lat="38.141399" lon="24.015401">
        <ele>3.458391</ele>
        <time>2024-04-28T10:05:02.000Z</time>
      </trkpt>
      <trkpt lat="38.141484" lon="24.015293">
        <ele>3.474431</ele>
        <time>2024-04-28T10:05:03.000Z</time>
      </trkpt>
      <trkpt lat="38.141437" lon="24.015112">
        <ele>3.473354</ele>
        <time>2024-04-28T10:05:05.000Z</time>
      </trkpt>
      <trkpt lat="38.141443" lon="24.015018">
        <ele>3.472844</ele>
        <time>2024-04-28T10:05:06.000Z</time>
      </trkpt>
      <trkpt lat="38.141443" lon="24.014902">
        <ele>3.472155</ele>
        <time>2024-04-28T10:05:07.000Z</time>
      </trkpt>
      <trkpt lat="38.141466" lon="24.014768">
        <ele>3.471418</ele>
        <time>2024-04-28T10:05:08.000Z</time>
      </trkpt>
      <trkpt lat="38.141564" lon="24.014691">
        <ele>3.470589</ele>
        <time>2024-04-28T10:05:09.000Z</time>
      </trkpt>
      <trkpt lat="38.141591" lon="24.014666">
        <ele>3.470307</ele>
        <time>2024-04-28T10:05:09.000Z</time>
      </trkpt>
      <trkpt lat="38.145003" lon="24.014456">
        <ele>3.243896</ele>
        <time>2024-04-28T10:05:47.000Z</time>
      </trkpt>
      <trkpt lat="38.145235" lon="24.014438">
        <ele>3.236203</ele>
        <time>2024-04-28T10:05:50.000Z</time>
      </trkpt>
      <trkpt lat="38.145367" lon="24.014433">
        <ele>3.23182</ele>
        <time>2024-04-28T10:05:51.000Z</time>
      </trkpt>
      <trkpt lat="38.145489" lon="24.014408">
        <ele>3.227835</ele>
        <time>2024-04-28T10:05:52.000Z</time>
      </trkpt>
      <trkpt lat="38.145787" lon="24.014397">
        <ele>3.21837</ele>
        <time>2024-04-28T10:05:55.000Z</time>
      </trkpt>
      <trkpt lat="38.145989" lon="24.01438">
        <ele>3.212126</ele>
        <time>2024-04-28T10:05:57.000Z</time>
      </trkpt>
      <trkpt lat="38.146203" lon="24.014379">
        <ele>3.205422</ele>
        <time>2024-04-28T10:05:59.000Z</time>
      </trkpt>
      <trkpt lat="38.146285" lon="24.014365">
        <ele>3.202496</ele>
        <time>2024-04-28T10:06:00.000Z</time>
      </trkpt>
      <trkpt lat="38.146756" lon="24.014324">
        <ele>3.199998</ele>
        <time>2024-04-28T10:06:05.000Z</time>
      </trkpt>
      <trkpt lat="38.146934" lon="24.014314">
        <ele>3.200004</ele>
        <time>2024-04-28T10:06:07.000Z</time>
      </trkpt>
      <trkpt lat="38.147064" lon="24.014306">
        <ele>3.200002</ele>
        <time>2024-04-28T10:06:08.000Z</time>
      </trkpt>
      <trkpt lat="38.147434" lon="24.014293">
        <ele>3.199999</ele>
        <time>2024-04-28T10:06:12.000Z</time>
      </trkpt>
      <trkpt lat="38.148316" lon="24.014241">
        <ele>3.196632</ele>
        <time>2024-04-28T10:06:22.000Z</time>
      </trkpt>
      <trkpt lat="38.148452" lon="24.014216">
        <ele>3.193397</ele>
        <time>2024-04-28T10:06:24.000Z</time>
      </trkpt>
      <trkpt lat="38.148584" lon="24.014213">
        <ele>3.190104</ele>
        <time>2024-04-28T10:06:25.000Z</time>
      </trkpt>
      <trkpt lat="38.148909" lon="24.014187">
        <ele>3.182698</ele>
        <time>2024-04-28T10:06:29.000Z</time>
      </trkpt>
      <trkpt lat="38.149067" lon="24.014176">
        <ele>3.179299</ele>
        <time>2024-04-28T10:06:31.000Z</time>
      </trkpt>
      <trkpt lat="38.14921" lon="24.014177">
        <ele>3.176253</ele>
        <time>2024-04-28T10:06:33.000Z</time>
      </trkpt>
      <trkpt lat="38.149359" lon="24.014171">
        <ele>3.172857</ele>
        <time>2024-04-28T10:06:35.000Z</time>
      </trkpt>
      <trkpt lat="38.149666" lon="24.014141">
        <ele>3.165583</ele>
        <time>2024-04-28T10:06:38.000Z</time>
      </trkpt>
      <trkpt lat="38.150558" lon="24.014076">
        <ele>3.125833</ele>
        <time>2024-04-28T10:06:48.000Z</time>
      </trkpt>
      <trkpt lat="38.150729" lon="24.01408">
        <ele>3.117213</ele>
        <time>2024-04-28T10:06:50.000Z</time>
      </trkpt>
      <trkpt lat="38.150862" lon="24.01407">
        <ele>3.109448</ele>
        <time>2024-04-28T10:06:51.000Z</time>
      </trkpt>
      <trkpt lat="38.151185" lon="24.014043">
        <ele>3.092292</ele>
        <time>2024-04-28T10:06:55.000Z</time>
      </trkpt>
      <trkpt lat="38.154281" lon="24.013841">
        <ele>2.902642</ele>
        <time>2024-04-28T10:07:29.000Z</time>
      </trkpt>
      <trkpt lat="38.154711" lon="24.013818">
        <ele>2.876349</ele>
        <time>2024-04-28T10:07:34.000Z</time>
      </trkpt>
      <trkpt lat="38.154989" lon="24.013813">
        <ele>2.859641</ele>
        <time>2024-04-28T10:07:37.000Z</time>
      </trkpt>
      <trkpt lat="38.155471" lon="24.013786">
        <ele>2.833482</ele>
        <time>2024-04-28T10:07:42.000Z</time>
      </trkpt>
      <trkpt lat="38.155744" lon="24.013769">
        <ele>2.823667</ele>
        <time>2024-04-28T10:07:45.000Z</time>
      </trkpt>
      <trkpt lat="38.156029" lon="24.013741">
        <ele>2.813434</ele>
        <time>2024-04-28T10:07:48.000Z</time>
      </trkpt>
      <trkpt lat="38.156029" lon="24.013742">
        <ele>2.813435</ele>
        <time>2024-04-28T10:07:48.000Z</time>
      </trkpt>
      <trkpt lat="38.15626" lon="24.013742">
        <ele>2.805225</ele>
        <time>2024-04-28T10:07:51.000Z</time>
      </trkpt>
      <trkpt lat="38.156358" lon="24.013718">
        <ele>2.801491</ele>
        <time>2024-04-28T10:07:52.000Z</time>
      </trkpt>
      <trkpt lat="38.156528" lon="24.013722">
        <ele>2.795845</ele>
        <time>2024-04-28T10:07:54.000Z</time>
      </trkpt>
      <trkpt lat="38.156681" lon="24.013717">
        <ele>2.790254</ele>
        <time>2024-04-28T10:07:56.000Z</time>
      </trkpt>
      <trkpt lat="38.156685" lon="24.01372">
        <ele>2.790243</ele>
        <time>2024-04-28T10:07:56.000Z</time>
      </trkpt>
      <trkpt lat="38.156819" lon="24.013703">
        <ele>2.785034</ele>
        <time>2024-04-28T10:07:57.000Z</time>
      </trkpt>
      <trkpt lat="38.15759" lon="24.013655">
        <ele>2.958834</ele>
        <time>2024-04-28T10:08:06.000Z</time>
      </trkpt>
      <trkpt lat="38.157771" lon="24.013656">
        <ele>3.040934</ele>
        <time>2024-04-28T10:08:08.000Z</time>
      </trkpt>
      <trkpt lat="38.158015" lon="24.013635">
        <ele>3.142696</ele>
        <time>2024-04-28T10:08:11.000Z</time>
      </trkpt>
      <trkpt lat="38.158244" lon="24.013615">
        <ele>3.235684</ele>
        <time>2024-04-28T10:08:14.000Z</time>
      </trkpt>
      <trkpt lat="38.158337" lon="24.013622">
        <ele>3.271704</ele>
        <time>2024-04-28T10:08:15.000Z</time>
      </trkpt>
      <trkpt lat="38.158596" lon="24.013593">
        <ele>3.386468</ele>
        <time>2024-04-28T10:08:18.000Z</time>
      </trkpt>
      <trkpt lat="38.158861" lon="24.013577">
        <ele>3.49036</ele>
        <time>2024-04-28T10:08:21.000Z</time>
      </trkpt>
      <trkpt lat="38.158856" lon="24.01359">
        <ele>3.49412</ele>
        <time>2024-04-28T10:08:21.000Z</time>
      </trkpt>
      <trkpt lat="38.159007" lon="24.013579">
        <ele>3.554795</ele>
        <time>2024-04-28T10:08:23.000Z</time>
      </trkpt>
      <trkpt lat="38.15908" lon="24.013579">
        <ele>3.597401</ele>
        <time>2024-04-28T10:08:24.000Z</time>
      </trkpt>
      <trkpt lat="38.159427" lon="24.013553">
        <ele>3.760706</ele>
        <time>2024-04-28T10:08:28.000Z</time>
      </trkpt>
      <trkpt lat="38.159602" lon="24.013543">
        <ele>3.843525</ele>
        <time>2024-04-28T10:08:30.000Z</time>
      </trkpt>
      <trkpt lat="38.159735" lon="24.013535">
        <ele>3.907416</ele>
        <time>2024-04-28T10:08:31.000Z</time>
      </trkpt>
      <trkpt lat="38.159846" lon="24.013517">
        <ele>3.959007</ele>
        <time>2024-04-28T10:08:32.000Z</time>
      </trkpt>
      <trkpt lat="38.160247" lon="24.013488">
        <ele>4.145491</ele>
        <time>2024-04-28T10:08:36.000Z</time>
      </trkpt>
      <trkpt lat="38.160353" lon="24.013482">
        <ele>4.192813</ele>
        <time>2024-04-28T10:08:37.000Z</time>
      </trkpt>
      <trkpt lat="38.160502" lon="24.013469">
        <ele>4.268553</ele>
        <time>2024-04-28T10:08:39.000Z</time>
      </trkpt>
      <trkpt lat="38.160501" lon="24.013457">
        <ele>4.274514</ele>
        <time>2024-04-28T10:08:39.000Z</time>
      </trkpt>
      <trkpt lat="38.160511" lon="24.013394">
        <ele>4.297216</ele>
        <time>2024-04-28T10:08:40.000Z</time>
      </trkpt>
      <trkpt lat="38.160486" lon="24.01286">
        <ele>4.330966</ele>
        <time>2024-04-28T10:08:45.000Z</time>
      </trkpt>
      <trkpt lat="38.160477" lon="24.012696">
        <ele>4.307392</ele>
        <time>2024-04-28T10:08:46.000Z</time>
      </trkpt>
      <trkpt lat="38.160471" lon="24.012521">
        <ele>4.282409</ele>
        <time>2024-04-28T10:08:48.000Z</time>
      </trkpt>
      <trkpt lat="38.160482" lon="24.012357">
        <ele>4.259278</ele>
        <time>2024-04-28T10:08:49.000Z</time>
      </trkpt>
      <trkpt lat="38.160457" lon="24.011902">
        <ele>4.19477</ele>
        <time>2024-04-28T10:08:53.000Z</time>
      </trkpt>
      <trkpt lat="38.16046" lon="24.011687">
        <ele>4.165699</ele>
        <time>2024-04-28T10:08:55.000Z</time>
      </trkpt>
      <trkpt lat="38.160441" lon="24.011549">
        <ele>4.143964</ele>
        <time>2024-04-28T10:08:56.000Z</time>
      </trkpt>
      <trkpt lat="38.160444" lon="24.011454">
        <ele>4.132676</ele>
        <time>2024-04-28T10:08:57.000Z</time>
      </trkpt>
      <trkpt lat="38.160384" lon="24.011451">
        <ele>4.120788</ele>
        <time>2024-04-28T10:08:58.000Z</time>
      </trkpt>
      <trkpt lat="38.160197" lon="24.011424">
        <ele>4.087079</ele>
        <time>2024-04-28T10:09:00.000Z</time>
      </trkpt>
      <trkpt lat="38.160048" lon="24.011439">
        <ele>4.061569</ele>
        <time>2024-04-28T10:09:02.000Z</time>
      </trkpt>
      <trkpt lat="38.159874" lon="24.011452">
        <ele>4.012887</ele>
        <time>2024-04-28T10:09:04.000Z</time>
      </trkpt>
      <trkpt lat="38.159792" lon="24.011459">
        <ele>3.992962</ele>
        <time>2024-04-28T10:09:05.000Z</time>
      </trkpt>
      <trkpt lat="38.159649" lon="24.011466">
        <ele>3.951088</ele>
        <time>2024-04-28T10:09:07.000Z</time>
      </trkpt>
      <trkpt lat="38.159291" lon="24.011474">
        <ele>3.847718</ele>
        <time>2024-04-28T10:09:11.000Z</time>
      </trkpt>
      <trkpt lat="38.159046" lon="24.011503">
        <ele>3.77552</ele>
        <time>2024-04-28T10:09:14.000Z</time>
      </trkpt>
      <trkpt lat="38.158999" lon="24.011508">
        <ele>3.759648</ele>
        <time>2024-04-28T10:09:15.000Z</time>
      </trkpt>
      <trkpt lat="38.158855" lon="24.011503">
        <ele>3.720651</ele>
        <time>2024-04-28T10:09:17.000Z</time>
      </trkpt>
      <trkpt lat="38.158493" lon="24.011535">
        <ele>3.61844</ele>
        <time>2024-04-28T10:09:21.000Z</time>
      </trkpt>
      <trkpt lat="38.158311" lon="24.01154">
        <ele>3.561269</ele>
        <time>2024-04-28T10:09:23.000Z</time>
      </trkpt>
      <trkpt lat="38.158158" lon="24.011553">
        <ele>3.532063</ele>
        <time>2024-04-28T10:09:25.000Z</time>
      </trkpt>
      <trkpt lat="38.158017" lon="24.011557">
        <ele>3.526156</ele>
        <time>2024-04-28T10:09:27.000Z</time>
      </trkpt>
      <trkpt lat="38.157683" lon="24.01158">
        <ele>3.509924</ele>
        <time>2024-04-28T10:09:31.000Z</time>
      </trkpt>
      <trkpt lat="38.157548" lon="24.011592">
        <ele>3.503591</ele>
        <time>2024-04-28T10:09:33.000Z</time>
      </trkpt>
      <trkpt lat="38.157335" lon="24.011591">
        <ele>3.493202</ele>
        <time>2024-04-28T10:09:35.000Z</time>
      </trkpt>
      <trkpt lat="38.157191" lon="24.011608">
        <ele>3.486399</ele>
        <time>2024-04-28T10:09:37.000Z</time>
      </trkpt>
      <trkpt lat="38.156856" lon="24.011628">
        <ele>3.470527</ele>
        <time>2024-04-28T10:09:41.000Z</time>
      </trkpt>
      <trkpt lat="38.156785" lon="24.01164">
        <ele>3.467224</ele>
        <time>2024-04-28T10:09:42.000Z</time>
      </trkpt>
      <trkpt lat="38.156494" lon="24.011658">
        <ele>3.453384</ele>
        <time>2024-04-28T10:09:45.000Z</time>
      </trkpt>
      <trkpt lat="38.156431" lon="24.011658">
        <ele>3.450841</ele>
        <time>2024-04-28T10:09:46.000Z</time>
      </trkpt>
      <trkpt lat="38.15601" lon="24.01168">
        <ele>3.415602</ele>
        <time>2024-04-28T10:09:51.000Z</time>
      </trkpt>
      <trkpt lat="38.156005" lon="24.011682">
        <ele>3.414576</ele>
        <time>2024-04-28T10:09:51.000Z</time>
      </trkpt>
      <trkpt lat="38.155736" lon="24.011689">
        <ele>3.391331</ele>
        <time>2024-04-28T10:09:54.000Z</time>
      </trkpt>
      <trkpt lat="38.155679" lon="24.011701">
        <ele>3.386594</ele>
        <time>2024-04-28T10:09:55.000Z</time>
      </trkpt>
      <trkpt lat="38.155219" lon="24.011726">
        <ele>3.347609</ele>
        <time>2024-04-28T10:10:00.000Z</time>
      </trkpt>
      <trkpt lat="38.155189" lon="24.011726">
        <ele>3.343917</ele>
        <time>2024-04-28T10:10:00.000Z</time>
      </trkpt>
      <trkpt lat="38.154958" lon="24.011737">
        <ele>3.324802</ele>
        <time>2024-04-28T10:10:03.000Z</time>
      </trkpt>
      <trkpt lat="38.1548" lon="24.011745">
        <ele>3.310618</ele>
        <time>2024-04-28T10:10:05.000Z</time>
      </trkpt>
      <trkpt lat="38.153617" lon="24.011818">
        <ele>3.391071</ele>
        <time>2024-04-28T10:10:18.000Z</time>
      </trkpt>
      <trkpt lat="38.153606" lon="24.011828">
        <ele>3.392692</ele>
        <time>2024-04-28T10:10:18.000Z</time>
      </trkpt>
      <trkpt lat="38.153405" lon="24.011845">
        <ele>3.411324</ele>
        <time>2024-04-28T10:10:20.000Z</time>
      </trkpt>
      <trkpt lat="38.15339" lon="24.011839">
        <ele>3.413438</ele>
        <time>2024-04-28T10:10:20.000Z</time>
      </trkpt>
      <trkpt lat="38.15163" lon="24.011942">
        <ele>3.48949</ele>
        <time>2024-04-28T10:10:40.000Z</time>
      </trkpt>
      <trkpt lat="38.151535" lon="24.01196">
        <ele>3.491391</ele>
        <time>2024-04-28T10:10:41.000Z</time>
      </trkpt>
      <trkpt lat="38.151105" lon="24.011996">
        <ele>3.499442</ele>
        <time>2024-04-28T10:10:46.000Z</time>
      </trkpt>
      <trkpt lat="38.151031" lon="24.012">
        <ele>3.500843</ele>
        <time>2024-04-28T10:10:47.000Z</time>
      </trkpt>
      <trkpt lat="38.150532" lon="24.012025">
        <ele>3.506504</ele>
        <time>2024-04-28T10:10:53.000Z</time>
      </trkpt>
      <trkpt lat="38.150533" lon="24.012021">
        <ele>3.506489</ele>
        <time>2024-04-28T10:10:53.000Z</time>
      </trkpt>
      <trkpt lat="38.150329" lon="24.012038">
        <ele>3.508828</ele>
        <time>2024-04-28T10:10:55.000Z</time>
      </trkpt>
      <trkpt lat="38.150211" lon="24.012056">
        <ele>3.510152</ele>
        <time>2024-04-28T10:10:56.000Z</time>
      </trkpt>
      <trkpt lat="38.149743" lon="24.01207">
        <ele>3.515663</ele>
        <time>2024-04-28T10:11:01.000Z</time>
      </trkpt>
      <trkpt lat="38.149704" lon="24.012065">
        <ele>3.515929</ele>
        <time>2024-04-28T10:11:01.000Z</time>
      </trkpt>
      <trkpt lat="38.149399" lon="24.012092">
        <ele>3.51964</ele>
        <time>2024-04-28T10:11:04.000Z</time>
      </trkpt>
      <trkpt lat="38.149354" lon="24.012089">
        <ele>3.520152</ele>
        <time>2024-04-28T10:11:05.000Z</time>
      </trkpt>
      <trkpt lat="38.148953" lon="24.012111">
        <ele>3.559131</ele>
        <time>2024-04-28T10:11:09.000Z</time>
      </trkpt>
      <trkpt lat="38.148942" lon="24.012129">
        <ele>3.561136</ele>
        <time>2024-04-28T10:11:09.000Z</time>
      </trkpt>
      <trkpt lat="38.148764" lon="24.012131">
        <ele>3.584023</ele>
        <time>2024-04-28T10:11:11.000Z</time>
      </trkpt>
      <trkpt lat="38.148566" lon="24.012136">
        <ele>3.610386</ele>
        <time>2024-04-28T10:11:13.000Z</time>
      </trkpt>
      <trkpt lat="38.148164" lon="24.01217">
        <ele>3.664582</ele>
        <time>2024-04-28T10:11:17.000Z</time>
      </trkpt>
      <trkpt lat="38.148139" lon="24.012177">
        <ele>3.668597</ele>
        <time>2024-04-28T10:11:17.000Z</time>
      </trkpt>
      <trkpt lat="38.147977" lon="24.012186">
        <ele>3.690151</ele>
        <time>2024-04-28T10:11:19.000Z</time>
      </trkpt>
      <trkpt lat="38.147328" lon="24.012229">
        <ele>3.763888</ele>
        <time>2024-04-28T10:11:26.000Z</time>
      </trkpt>
      <trkpt lat="38.147188" lon="24.012237">
        <ele>3.76659</ele>
        <time>2024-04-28T10:11:28.000Z</time>
      </trkpt>
      <trkpt lat="38.146908" lon="24.012254">
        <ele>3.771628</ele>
        <time>2024-04-28T10:11:31.000Z</time>
      </trkpt>
      <trkpt lat="38.146578" lon="24.012269">
        <ele>3.777833</ele>
        <time>2024-04-28T10:11:35.000Z</time>
      </trkpt>
      <trkpt lat="38.146392" lon="24.01228">
        <ele>3.781362</ele>
        <time>2024-04-28T10:11:37.000Z</time>
      </trkpt>
      <trkpt lat="38.146099" lon="24.01231">
        <ele>3.786795</ele>
        <time>2024-04-28T10:11:40.000Z</time>
      </trkpt>
      <trkpt lat="38.145792" lon="24.01232">
        <ele>3.792258</ele>
        <time>2024-04-28T10:11:43.000Z</time>
      </trkpt>
      <trkpt lat="38.145677" lon="24.01232">
        <ele>3.794515</ele>
        <time>2024-04-28T10:11:44.000Z</time>
      </trkpt>
      <trkpt lat="38.140564" lon="24.012644">
        <ele>3.671773</ele>
        <time>2024-04-28T10:12:41.000Z</time>
      </trkpt>
      <trkpt lat="38.140341" lon="24.012789">
        <ele>3.661832</ele>
        <time>2024-04-28T10:12:44.000Z</time>
      </trkpt>
      <trkpt lat="38.140179" lon="24.012997">
        <ele>3.61667</ele>
        <time>2024-04-28T10:12:47.000Z</time>
      </trkpt>
      <trkpt lat="38.140011" lon="24.013341">
        <ele>3.535637</ele>
        <time>2024-04-28T10:12:51.000Z</time>
      </trkpt>
      <trkpt lat="38.139825" lon="24.013846">
        <ele>3.423369</ele>
        <time>2024-04-28T10:12:56.000Z</time>
      </trkpt>
      <trkpt lat="38.13982" lon="24.013889">
        <ele>3.417565</ele>
        <time>2024-04-28T10:12:56.000Z</time>
      </trkpt>
      <trkpt lat="38.139827" lon="24.014158">
        <ele>3.363394</ele>
        <time>2024-04-28T10:12:58.000Z</time>
      </trkpt>
      <trkpt lat="38.13983" lon="24.014183">
        <ele>3.357979</ele>
        <time>2024-04-28T10:12:58.000Z</time>
      </trkpt>
      <trkpt lat="38.139858" lon="24.01437">
        <ele>3.319885</ele>
        <time>2024-04-28T10:13:00.000Z</time>
      </trkpt>
      <trkpt lat="38.139893" lon="24.014486">
        <ele>3.294113</ele>
        <time>2024-04-28T10:13:01.000Z</time>
      </trkpt>
      <trkpt lat="38.139899" lon="24.014502">
        <ele>3.290967</ele>
        <time>2024-04-28T10:13:01.000Z</time>
      </trkpt>
      <trkpt lat="38.140157" lon="24.014969">
        <ele>3.184853</ele>
        <time>2024-04-28T10:13:06.000Z</time>
      </trkpt>
      <trkpt lat="38.140268" lon="24.015083">
        <ele>3.162015</ele>
        <time>2024-04-28T10:13:08.000Z</time>
      </trkpt>
      <trkpt lat="38.140273" lon="24.015081">
        <ele>3.162008</ele>
        <time>2024-04-28T10:13:08.000Z</time>
      </trkpt>
      <trkpt lat="38.140395" lon="24.015263">
        <ele>3.131364</ele>
        <time>2024-04-28T10:13:10.000Z</time>
      </trkpt>
      <trkpt lat="38.140457" lon="24.01536">
        <ele>3.114897</ele>
        <time>2024-04-28T10:13:11.000Z</time>
      </trkpt>
      <trkpt lat="38.140509" lon="24.01548">
        <ele>3.095525</ele>
        <time>2024-04-28T10:13:12.000Z</time>
      </trkpt>
      <trkpt lat="38.140525" lon="24.01548">
        <ele>3.094711</ele>
        <time>2024-04-28T10:13:12.000Z</time>
      </trkpt>
      <trkpt lat="38.140566" lon="24.015568">
        <ele>3.080528</ele>
        <time>2024-04-28T10:13:13.000Z</time>
      </trkpt>
      <trkpt lat="38.140595" lon="24.015639">
        <ele>3.07108</ele>
        <time>2024-04-28T10:13:14.000Z</time>
      </trkpt>
      <trkpt lat="38.140656" lon="24.015758">
        <ele>3.051401</ele>
        <time>2024-04-28T10:13:15.000Z</time>
      </trkpt>
      <trkpt lat="38.140676" lon="24.015788">
        <ele>3.046935</ele>
        <time>2024-04-28T10:13:15.000Z</time>
      </trkpt>
      <trkpt lat="38.140734" lon="24.015946">
        <ele>3.023985</ele>
        <time>2024-04-28T10:13:17.000Z</time>
      </trkpt>
      <trkpt lat="38.140666" lon="24.016">
        <ele>3.008213</ele>
        <time>2024-04-28T10:13:18.000Z</time>
      </trkpt>
      <trkpt lat="38.140575" lon="24.016035">
        <ele>2.994014</ele>
        <time>2024-04-28T10:13:19.000Z</time>
      </trkpt>
      <trkpt lat="38.140234" lon="24.016188">
        <ele>2.931961</ele>
        <time>2024-04-28T10:13:23.000Z</time>
      </trkpt>
      <trkpt lat="38.140112" lon="24.016236">
        <ele>2.912664</ele>
        <time>2024-04-28T10:13:24.000Z</time>
      </trkpt>
      <trkpt lat="38.14005" lon="24.016258">
        <ele>2.901668</ele>
        <time>2024-04-28T10:13:25.000Z</time>
      </trkpt>
      <trkpt lat="38.139981" lon="24.016301">
        <ele>2.905645</ele>
        <time>2024-04-28T10:13:26.000Z</time>
      </trkpt>
      <trkpt lat="38.139935" lon="24.016325">
        <ele>2.907471</ele>
        <time>2024-04-28T10:13:27.000Z</time>
      </trkpt>
      <trkpt lat="38.139856" lon="24.016353">
        <ele>2.911286</ele>
        <time>2024-04-28T10:13:28.000Z</time>
      </trkpt>
      <trkpt lat="38.139857" lon="24.016356">
        <ele>2.911822</ele>
        <time>2024-04-28T10:13:28.000Z</time>
      </trkpt>
      <trkpt lat="38.139479" lon="24.016517">
        <ele>2.92915</ele>
        <time>2024-04-28T10:13:32.000Z</time>
      </trkpt>
      <trkpt lat="38.139261" lon="24.016615">
        <ele>2.940024</ele>
        <time>2024-04-28T10:13:35.000Z</time>
      </trkpt>
      <trkpt lat="38.13927" lon="24.016619">
        <ele>2.940081</ele>
        <time>2024-04-28T10:13:35.000Z</time>
      </trkpt>
      <trkpt lat="38.139208" lon="24.01662">
        <ele>2.94217</ele>
        <time>2024-04-28T10:13:36.000Z</time>
      </trkpt>
      <trkpt lat="38.139088" lon="24.016636">
        <ele>2.948336</ele>
        <time>2024-04-28T10:13:37.000Z</time>
      </trkpt>
      <trkpt lat="38.13883" lon="24.016668">
        <ele>2.959656</ele>
        <time>2024-04-28T10:13:40.000Z</time>
      </trkpt>
      <trkpt lat="38.138761" lon="24.016682">
        <ele>2.962597</ele>
        <time>2024-04-28T10:13:41.000Z</time>
      </trkpt>
      <trkpt lat="38.138578" lon="24.016669">
        <ele>2.971132</ele>
        <time>2024-04-28T10:13:43.000Z</time>
      </trkpt>
      <trkpt lat="38.138579" lon="24.016676">
        <ele>2.97114</ele>
        <time>2024-04-28T10:13:43.000Z</time>
      </trkpt>
      <trkpt lat="38.138438" lon="24.016637">
        <ele>2.977913</ele>
        <time>2024-04-28T10:13:45.000Z</time>
      </trkpt>
      <trkpt lat="38.138245" lon="24.016526">
        <ele>2.978814</ele>
        <time>2024-04-28T10:13:47.000Z</time>
      </trkpt>
      <trkpt lat="38.138228" lon="24.016484">
        <ele>2.976276</ele>
        <time>2024-04-28T10:13:47.000Z</time>
      </trkpt>
      <trkpt lat="38.138247" lon="24.016033">
        <ele>2.957238</ele>
        <time>2024-04-28T10:13:51.000Z</time>
      </trkpt>
      <trkpt lat="38.138341" lon="24.015301">
        <ele>2.926548</ele>
        <time>2024-04-28T10:13:57.000Z</time>
      </trkpt>
      <trkpt lat="38.138511" lon="24.014706">
        <ele>2.899143</ele>
        <time>2024-04-28T10:14:03.000Z</time>
      </trkpt>
      <trkpt lat="38.138853" lon="24.013926">
        <ele>2.982897</ele>
        <time>2024-04-28T10:14:11.000Z</time>
      </trkpt>
      <trkpt lat="38.138929" lon="24.013794">
        <ele>3.010531</ele>
        <time>2024-04-28T10:14:12.000Z</time>
      </trkpt>
      <trkpt lat="38.138955" lon="24.013766">
        <ele>3.017829</ele>
        <time>2024-04-28T10:14:12.000Z</time>
      </trkpt>
      <trkpt lat="38.138983" lon="24.013717">
        <ele>3.026264</ele>
        <time>2024-04-28T10:14:13.000Z</time>
      </trkpt>
      <trkpt lat="38.13906" lon="24.013577">
        <ele>3.054801</ele>
        <time>2024-04-28T10:14:14.000Z</time>
      </trkpt>
      <trkpt lat="38.139165" lon="24.013443">
        <ele>3.084091</ele>
        <time>2024-04-28T10:14:16.000Z</time>
      </trkpt>
      <trkpt lat="38.139167" lon="24.013438">
        <ele>3.08409</ele>
        <time>2024-04-28T10:14:16.000Z</time>
      </trkpt>
      <trkpt lat="38.139288" lon="24.013227">
        <ele>3.127981</ele>
        <time>2024-04-28T10:14:18.000Z</time>
      </trkpt>
      <trkpt lat="38.139321" lon="24.013206">
        <ele>3.134764</ele>
        <time>2024-04-28T10:14:18.000Z</time>
      </trkpt>
      <trkpt lat="38.139392" lon="24.013085">
        <ele>3.159465</ele>
        <time>2024-04-28T10:14:19.000Z</time>
      </trkpt>
      <trkpt lat="38.139639" lon="24.012709">
        <ele>3.24098</ele>
        <time>2024-04-28T10:14:23.000Z</time>
      </trkpt>
      <trkpt lat="38.140119" lon="24.011963">
        <ele>3.387638</ele>
        <time>2024-04-28T10:14:31.000Z</time>
      </trkpt>
      <trkpt lat="38.140306" lon="24.01171">
        <ele>3.439666</ele>
        <time>2024-04-28T10:14:34.000Z</time>
      </trkpt>
      <trkpt lat="38.140419" lon="24.01153">
        <ele>3.473958</ele>
        <time>2024-04-28T10:14:36.000Z</time>
      </trkpt>
      <trkpt lat="38.140611" lon="24.011227">
        <ele>3.534731</ele>
        <time>2024-04-28T10:14:39.000Z</time>
      </trkpt>
      <trkpt lat="38.141258" lon="24.010238">
        <ele>3.714135</ele>
        <time>2024-04-28T10:14:50.000Z</time>
      </trkpt>
      <trkpt lat="38.14127" lon="24.010236">
        <ele>3.714567</ele>
        <time>2024-04-28T10:14:50.000Z</time>
      </trkpt>
      <trkpt lat="38.141423" lon="24.00999">
        <ele>3.757596</ele>
        <time>2024-04-28T10:14:53.000Z</time>
      </trkpt>
      <trkpt lat="38.141689" lon="24.009594">
        <ele>3.825148</ele>
        <time>2024-04-28T10:14:58.000Z</time>
      </trkpt>
      <trkpt lat="38.141759" lon="24.009481">
        <ele>3.84615</ele>
        <time>2024-04-28T10:14:59.000Z</time>
      </trkpt>
      <trkpt lat="38.141767" lon="24.009486">
        <ele>3.846147</ele>
        <time>2024-04-28T10:14:59.000Z</time>
      </trkpt>
      <trkpt lat="38.141903" lon="24.009255">
        <ele>3.883149</ele>
        <time>2024-04-28T10:15:02.000Z</time>
      </trkpt>
      <trkpt lat="38.142211" lon="24.008813">
        <ele>3.993476</ele>
        <time>2024-04-28T10:15:07.000Z</time>
      </trkpt>
      <trkpt lat="38.142401" lon="24.008502">
        <ele>4.078343</ele>
        <time>2024-04-28T10:15:10.000Z</time>
      </trkpt>
      <trkpt lat="38.142415" lon="24.008491">
        <ele>4.07833</ele>
        <time>2024-04-28T10:15:10.000Z</time>
      </trkpt>
      <trkpt lat="38.142741" lon="24.008005">
        <ele>4.214085</ele>
        <time>2024-04-28T10:15:16.000Z</time>
      </trkpt>
      <trkpt lat="38.142814" lon="24.007881">
        <ele>4.247569</ele>
        <time>2024-04-28T10:15:17.000Z</time>
      </trkpt>
      <trkpt lat="38.142841" lon="24.007844">
        <ele>4.259676</ele>
        <time>2024-04-28T10:15:17.000Z</time>
      </trkpt>
      <trkpt lat="38.142982" lon="24.007623">
        <ele>4.318999</ele>
        <time>2024-04-28T10:15:19.000Z</time>
      </trkpt>
      <trkpt lat="38.145745" lon="24.003441">
        <ele>4.887554</ele>
        <time>2024-04-28T10:16:07.000Z</time>
      </trkpt>
      <trkpt lat="38.146157" lon="24.002805">
        <ele>5.166004</ele>
        <time>2024-04-28T10:16:14.000Z</time>
      </trkpt>
      <trkpt lat="38.146154" lon="24.002812">
        <ele>5.166005</ele>
        <time>2024-04-28T10:16:14.000Z</time>
      </trkpt>
      <trkpt lat="38.146228" lon="24.002693">
        <ele>5.216465</ele>
        <time>2024-04-28T10:16:15.000Z</time>
      </trkpt>
      <trkpt lat="38.146331" lon="24.002524">
        <ele>5.291217</ele>
        <time>2024-04-28T10:16:17.000Z</time>
      </trkpt>
      <trkpt lat="38.146375" lon="24.002477">
        <ele>5.310453</ele>
        <time>2024-04-28T10:16:18.000Z</time>
      </trkpt>
      <trkpt lat="38.146621" lon="24.002073">
        <ele>5.486986</ele>
        <time>2024-04-28T10:16:22.000Z</time>
      </trkpt>
      <trkpt lat="38.146707" lon="24.001958">
        <ele>5.537169</ele>
        <time>2024-04-28T10:16:23.000Z</time>
      </trkpt>
      <trkpt lat="38.146817" lon="24.001791">
        <ele>5.599604</ele>
        <time>2024-04-28T10:16:25.000Z</time>
      </trkpt>
      <trkpt lat="38.146937" lon="24.001611">
        <ele>5.674792</ele>
        <time>2024-04-28T10:16:27.000Z</time>
      </trkpt>
      <trkpt lat="38.150544" lon="23.996121">
        <ele>7.562434</ele>
        <time>2024-04-28T10:17:30.000Z</time>
      </trkpt>
      <trkpt lat="38.150574" lon="23.996065">
        <ele>7.563288</ele>
        <time>2024-04-28T10:17:31.000Z</time>
      </trkpt>
      <trkpt lat="38.150567" lon="23.996078">
        <ele>7.563288</ele>
        <time>2024-04-28T10:17:31.000Z</time>
      </trkpt>
      <trkpt lat="38.15063" lon="23.995995">
        <ele>7.564518</ele>
        <time>2024-04-28T10:17:32.000Z</time>
      </trkpt>
      <trkpt lat="38.150683" lon="23.995909">
        <ele>7.565983</ele>
        <time>2024-04-28T10:17:33.000Z</time>
      </trkpt>
      <trkpt lat="38.150639" lon="23.995871">
        <ele>7.566714</ele>
        <time>2024-04-28T10:17:34.000Z</time>
      </trkpt>
      <trkpt lat="38.150632" lon="23.995846">
        <ele>7.56722</ele>
        <time>2024-04-28T10:17:34.000Z</time>
      </trkpt>
      <trkpt lat="38.150624" lon="23.995853">
        <ele>7.567215</ele>
        <time>2024-04-28T10:17:34.000Z</time>
      </trkpt>
      <trkpt lat="38.150571" lon="23.995946">
        <ele>7.568717</ele>
        <time>2024-04-28T10:17:35.000Z</time>
      </trkpt>
      <trkpt lat="38.150526" lon="23.996021">
        <ele>7.569987</ele>
        <time>2024-04-28T10:17:36.000Z</time>
      </trkpt>
      <trkpt lat="38.150408" lon="23.996187">
        <ele>7.572796</ele>
        <time>2024-04-28T10:17:38.000Z</time>
      </trkpt>
      <trkpt lat="38.146366" lon="24.002311">
        <ele>5.120448</ele>
        <time>2024-04-28T10:18:48.000Z</time>
      </trkpt>
      <trkpt lat="38.146266" lon="24.002478">
        <ele>5.115149</ele>
        <time>2024-04-28T10:18:50.000Z</time>
      </trkpt>
      <trkpt lat="38.146047" lon="24.002788">
        <ele>5.104996</ele>
        <time>2024-04-28T10:18:54.000Z</time>
      </trkpt>
      <trkpt lat="38.145289" lon="24.003929">
        <ele>5.037213</ele>
        <time>2024-04-28T10:19:07.000Z</time>
      </trkpt>
      <trkpt lat="38.142346" lon="24.008382">
        <ele>4.312167</ele>
        <time>2024-04-28T10:19:58.000Z</time>
      </trkpt>
      <trkpt lat="38.141889" lon="24.009081">
        <ele>4.125347</ele>
        <time>2024-04-28T10:20:06.000Z</time>
      </trkpt>
      <trkpt lat="38.14131" lon="24.009959">
        <ele>3.858201</ele>
        <time>2024-04-28T10:20:16.000Z</time>
      </trkpt>
      <trkpt lat="38.141155" lon="24.010198">
        <ele>3.78301</ele>
        <time>2024-04-28T10:20:19.000Z</time>
      </trkpt>
      <trkpt lat="38.141094" lon="24.0103">
        <ele>3.750898</ele>
        <time>2024-04-28T10:20:20.000Z</time>
      </trkpt>
      <trkpt lat="38.140788" lon="24.010753">
        <ele>3.617168</ele>
        <time>2024-04-28T10:20:25.000Z</time>
      </trkpt>
      <trkpt lat="38.140616" lon="24.011025">
        <ele>3.550735</ele>
        <time>2024-04-28T10:20:28.000Z</time>
      </trkpt>
      <trkpt lat="38.140614" lon="24.011028">
        <ele>3.549654</ele>
        <time>2024-04-28T10:20:28.000Z</time>
      </trkpt>
      <trkpt lat="38.140536" lon="24.011128">
        <ele>3.52127</ele>
        <time>2024-04-28T10:20:29.000Z</time>
      </trkpt>
      <trkpt lat="38.140309" lon="24.01148">
        <ele>3.433513</ele>
        <time>2024-04-28T10:20:33.000Z</time>
      </trkpt>
      <trkpt lat="38.140109" lon="24.011776">
        <ele>3.359109</ele>
        <time>2024-04-28T10:20:36.000Z</time>
      </trkpt>
      <trkpt lat="38.140066" lon="24.011835">
        <ele>3.341778</ele>
        <time>2024-04-28T10:20:37.000Z</time>
      </trkpt>
      <trkpt lat="38.139632" lon="24.012515">
        <ele>3.175426</ele>
        <time>2024-04-28T10:20:45.000Z</time>
      </trkpt>
      <trkpt lat="38.139085" lon="24.013339">
        <ele>3.002096</ele>
        <time>2024-04-28T10:20:54.000Z</time>
      </trkpt>
      <trkpt lat="38.139092" lon="24.013337">
        <ele>3.002104</ele>
        <time>2024-04-28T10:20:54.000Z</time>
      </trkpt>
      <trkpt lat="38.138978" lon="24.013505">
        <ele>2.965799</ele>
        <time>2024-04-28T10:20:56.000Z</time>
      </trkpt>
      <trkpt lat="38.13896" lon="24.013526">
        <ele>2.959913</ele>
        <time>2024-04-28T10:20:56.000Z</time>
      </trkpt>
      <trkpt lat="38.1389" lon="24.013632">
        <ele>2.941236</ele>
        <time>2024-04-28T10:20:57.000Z</time>
      </trkpt>
      <trkpt lat="38.138885" lon="24.013659">
        <ele>2.933311</ele>
        <time>2024-04-28T10:20:57.000Z</time>
      </trkpt>
      <trkpt lat="38.138866" lon="24.013709">
        <ele>2.92548</ele>
        <time>2024-04-28T10:20:57.000Z</time>
      </trkpt>
      <trkpt lat="38.138725" lon="24.013945">
        <ele>2.879386</ele>
        <time>2024-04-28T10:21:00.000Z</time>
      </trkpt>
      <trkpt lat="38.138549" lon="24.014309">
        <ele>2.852746</ele>
        <time>2024-04-28T10:21:04.000Z</time>
      </trkpt>
      <trkpt lat="38.138312" lon="24.014978">
        <ele>2.941057</ele>
        <time>2024-04-28T10:21:10.000Z</time>
      </trkpt>
      <trkpt lat="38.138242" lon="24.015328">
        <ele>2.983894</ele>
        <time>2024-04-28T10:21:13.000Z</time>
      </trkpt>
      <trkpt lat="38.138179" lon="24.015589">
        <ele>3.01656</ele>
        <time>2024-04-28T10:21:15.000Z</time>
      </trkpt>
      <trkpt lat="38.138171" lon="24.015749">
        <ele>3.034741</ele>
        <time>2024-04-28T10:21:16.000Z</time>
      </trkpt>
      <trkpt lat="38.138144" lon="24.01601">
        <ele>3.067317</ele>
        <time>2024-04-28T10:21:18.000Z</time>
      </trkpt>
      <trkpt lat="38.138139" lon="24.016275">
        <ele>3.098711</ele>
        <time>2024-04-28T10:21:20.000Z</time>
      </trkpt>
      <trkpt lat="38.138128" lon="24.016694">
        <ele>3.102718</ele>
        <time>2024-04-28T10:21:24.000Z</time>
      </trkpt>
      <trkpt lat="38.138229" lon="24.016686">
        <ele>3.100726</ele>
        <time>2024-04-28T10:21:25.000Z</time>
      </trkpt>
      <trkpt lat="38.138229" lon="24.016688">
        <ele>3.100724</ele>
        <time>2024-04-28T10:21:25.000Z</time>
      </trkpt>
      <trkpt lat="38.138413" lon="24.016667">
        <ele>3.096684</ele>
        <time>2024-04-28T10:21:27.000Z</time>
      </trkpt>
      <trkpt lat="38.138482" lon="24.016674">
        <ele>3.095238</ele>
        <time>2024-04-28T10:21:28.000Z</time>
      </trkpt>
      <trkpt lat="38.138575" lon="24.016673">
        <ele>3.093028</ele>
        <time>2024-04-28T10:21:29.000Z</time>
      </trkpt>
      <trkpt lat="38.138583" lon="24.016673">
        <ele>3.093033</ele>
        <time>2024-04-28T10:21:29.000Z</time>
      </trkpt>
      <trkpt lat="38.138774" lon="24.016666">
        <ele>3.088972</ele>
        <time>2024-04-28T10:21:31.000Z</time>
      </trkpt>
      <trkpt lat="38.138832" lon="24.016673">
        <ele>3.087578</ele>
        <time>2024-04-28T10:21:32.000Z</time>
      </trkpt>
      <trkpt lat="38.139075" lon="24.016642">
        <ele>3.082196</ele>
        <time>2024-04-28T10:21:35.000Z</time>
      </trkpt>
      <trkpt lat="38.13922" lon="24.016632">
        <ele>3.079278</ele>
        <time>2024-04-28T10:21:37.000Z</time>
      </trkpt>
      <trkpt lat="38.139262" lon="24.016623">
        <ele>3.078268</ele>
        <time>2024-04-28T10:21:37.000Z</time>
      </trkpt>
      <trkpt lat="38.139254" lon="24.01662">
        <ele>3.078254</ele>
        <time>2024-04-28T10:21:37.000Z</time>
      </trkpt>
      <trkpt lat="38.139488" lon="24.016512">
        <ele>3.073086</ele>
        <time>2024-04-28T10:21:40.000Z</time>
      </trkpt>
      <trkpt lat="38.13984" lon="24.016365">
        <ele>3.113993</ele>
        <time>2024-04-28T10:21:44.000Z</time>
      </trkpt>
      <trkpt lat="38.139862" lon="24.016346">
        <ele>3.116295</ele>
        <time>2024-04-28T10:21:44.000Z</time>
      </trkpt>
      <trkpt lat="38.139942" lon="24.016324">
        <ele>3.132796</ele>
        <time>2024-04-28T10:21:45.000Z</time>
      </trkpt>
      <trkpt lat="38.139967" lon="24.016304">
        <ele>3.140713</ele>
        <time>2024-04-28T10:21:45.000Z</time>
      </trkpt>
      <trkpt lat="38.140054" lon="24.016258">
        <ele>3.157987</ele>
        <time>2024-04-28T10:21:46.000Z</time>
      </trkpt>
      <trkpt lat="38.140129" lon="24.016235">
        <ele>3.170925</ele>
        <time>2024-04-28T10:21:47.000Z</time>
      </trkpt>
      <trkpt lat="38.140226" lon="24.016183">
        <ele>3.19359</ele>
        <time>2024-04-28T10:21:48.000Z</time>
      </trkpt>
      <trkpt lat="38.140573" lon="24.016036">
        <ele>3.266522</ele>
        <time>2024-04-28T10:21:52.000Z</time>
      </trkpt>
      <trkpt lat="38.140656" lon="24.016002">
        <ele>3.283207</ele>
        <time>2024-04-28T10:21:53.000Z</time>
      </trkpt>
      <trkpt lat="38.140751" lon="24.015935">
        <ele>3.301746</ele>
        <time>2024-04-28T10:21:54.000Z</time>
      </trkpt>
      <trkpt lat="38.140926" lon="24.015797">
        <ele>3.34321</ele>
        <time>2024-04-28T10:21:56.000Z</time>
      </trkpt>
      <trkpt lat="38.141073" lon="24.015671">
        <ele>3.376964</ele>
        <time>2024-04-28T10:21:58.000Z</time>
      </trkpt>
      <trkpt lat="38.14125" lon="24.015531">
        <ele>3.420515</ele>
        <time>2024-04-28T10:22:00.000Z</time>
      </trkpt>
      <trkpt lat="38.141403" lon="24.015406">
        <ele>3.429517</ele>
        <time>2024-04-28T10:22:02.000Z</time>
      </trkpt>
      <trkpt lat="38.141486" lon="24.015282">
        <ele>3.43404</ele>
        <time>2024-04-28T10:22:03.000Z</time>
      </trkpt>
      <trkpt lat="38.141442" lon="24.015117">
        <ele>3.439724</ele>
        <time>2024-04-28T10:22:05.000Z</time>
      </trkpt>
      <trkpt lat="38.141437" lon="24.015012">
        <ele>3.442411</ele>
        <time>2024-04-28T10:22:06.000Z</time>
      </trkpt>
      <trkpt lat="38.141446" lon="24.014891">
        <ele>3.446062</ele>
        <time>2024-04-28T10:22:07.000Z</time>
      </trkpt>
      <trkpt lat="38.141471" lon="24.014768">
        <ele>3.449965</ele>
        <time>2024-04-28T10:22:08.000Z</time>
      </trkpt>
      <trkpt lat="38.14156" lon="24.014695">
        <ele>3.454292</ele>
        <time>2024-04-28T10:22:09.000Z</time>
      </trkpt>
      <trkpt lat="38.141601" lon="24.014663">
        <ele>3.455771</ele>
        <time>2024-04-28T10:22:10.000Z</time>
      </trkpt>
      <trkpt lat="38.144999" lon="24.014439">
        <ele>3.250572</ele>
        <time>2024-04-28T10:22:48.000Z</time>
      </trkpt>
      <trkpt lat="38.145243" lon="24.014429">
        <ele>3.239787</ele>
        <time>2024-04-28T10:22:51.000Z</time>
      </trkpt>
      <trkpt lat="38.145379" lon="24.014427">
        <ele>3.23365</ele>
        <time>2024-04-28T10:22:53.000Z</time>
      </trkpt>
      <trkpt lat="38.145494" lon="24.014424">
        <ele>3.228078</ele>
        <time>2024-04-28T10:22:54.000Z</time>
      </trkpt>
      <trkpt lat="38.145784" lon="24.014398">
        <ele>3.214828</ele>
        <time>2024-04-28T10:22:57.000Z</time>
      </trkpt>
      <trkpt lat="38.145981" lon="24.014393">
        <ele>3.206055</ele>
        <time>2024-04-28T10:22:59.000Z</time>
      </trkpt>
      <trkpt lat="38.146195" lon="24.014376">
        <ele>3.199998</ele>
        <time>2024-04-28T10:23:01.000Z</time>
      </trkpt>
      <trkpt lat="38.146286" lon="24.014367">
        <ele>3.199991</ele>
        <time>2024-04-28T10:23:02.000Z</time>
      </trkpt>
      <trkpt lat="38.146761" lon="24.014341">
        <ele>3.200001</ele>
        <time>2024-04-28T10:23:07.000Z</time>
      </trkpt>
      <trkpt lat="38.146935" lon="24.014322">
        <ele>3.200005</ele>
        <time>2024-04-28T10:23:09.000Z</time>
      </trkpt>
      <trkpt lat="38.147052" lon="24.01431">
        <ele>3.200005</ele>
        <time>2024-04-28T10:23:10.000Z</time>
      </trkpt>
      <trkpt lat="38.147432" lon="24.014285">
        <ele>3.199993</ele>
        <time>2024-04-28T10:23:14.000Z</time>
      </trkpt>
      <trkpt lat="38.148313" lon="24.014225">
        <ele>3.194039</ele>
        <time>2024-04-28T10:23:24.000Z</time>
      </trkpt>
      <trkpt lat="38.148455" lon="24.014225">
        <ele>3.19187</ele>
        <time>2024-04-28T10:23:26.000Z</time>
      </trkpt>
      <trkpt lat="38.148598" lon="24.01422">
        <ele>3.189665</ele>
        <time>2024-04-28T10:23:28.000Z</time>
      </trkpt>
      <trkpt lat="38.148921" lon="24.014185">
        <ele>3.184701</ele>
        <time>2024-04-28T10:23:32.000Z</time>
      </trkpt>
      <trkpt lat="38.149072" lon="24.014186">
        <ele>3.182423</ele>
        <time>2024-04-28T10:23:34.000Z</time>
      </trkpt>
      <trkpt lat="38.149195" lon="24.014169">
        <ele>3.18039</ele>
        <time>2024-04-28T10:23:35.000Z</time>
      </trkpt>
      <trkpt lat="38.149345" lon="24.014167">
        <ele>3.178113</ele>
        <time>2024-04-28T10:23:37.000Z</time>
      </trkpt>
      <trkpt lat="38.149675" lon="24.014138">
        <ele>3.173233</ele>
        <time>2024-04-28T10:23:41.000Z</time>
      </trkpt>
      <trkpt lat="38.150568" lon="24.01408">
        <ele>3.125312</ele>
        <time>2024-04-28T10:23:51.000Z</time>
      </trkpt>
      <trkpt lat="38.150723" lon="24.014081">
        <ele>3.116524</ele>
        <time>2024-04-28T10:23:53.000Z</time>
      </trkpt>
      <trkpt lat="38.150868" lon="24.014069">
        <ele>3.108618</ele>
        <time>2024-04-28T10:23:55.000Z</time>
      </trkpt>
      <trkpt lat="38.151181" lon="24.014044">
        <ele>3.091132</ele>
        <time>2024-04-28T10:23:58.000Z</time>
      </trkpt>
      <trkpt lat="38.154281" lon="24.013838">
        <ele>2.905174</ele>
        <time>2024-04-28T10:24:33.000Z</time>
      </trkpt>
      <trkpt lat="38.154716" lon="24.013827">
        <ele>2.879858</ele>
        <time>2024-04-28T10:24:38.000Z</time>
      </trkpt>
      <trkpt lat="38.154995" lon="24.013807">
        <ele>2.863764</ele>
        <time>2024-04-28T10:24:41.000Z</time>
      </trkpt>
      <trkpt lat="38.155456" lon="24.013785">
        <ele>2.836327</ele>
        <time>2024-04-28T10:24:46.000Z</time>
      </trkpt>
      <trkpt lat="38.155747" lon="24.013754">
        <ele>2.820611</ele>
        <time>2024-04-28T10:24:49.000Z</time>
      </trkpt>
      <trkpt lat="38.15603" lon="24.013753">
        <ele>2.804184</ele>
        <time>2024-04-28T10:24:52.000Z</time>
      </trkpt>
      <trkpt lat="38.156035" lon="24.013745">
        <ele>2.804188</ele>
        <time>2024-04-28T10:24:52.000Z</time>
      </trkpt>
      <trkpt lat="38.156257" lon="24.013738">
        <ele>2.791032</ele>
        <time>2024-04-28T10:24:54.000Z</time>
      </trkpt>
      <trkpt lat="38.156358" lon="24.013721">
        <ele>2.785037</ele>
        <time>2024-04-28T10:24:55.000Z</time>
      </trkpt>
      <trkpt lat="38.156516" lon="24.01372">
        <ele>2.775996</ele>
        <time>2024-04-28T10:24:57.000Z</time>
      </trkpt>
      <trkpt lat="38.156684" lon="24.013715">
        <ele>2.767027</ele>
        <time>2024-04-28T10:24:59.000Z</time>
      </trkpt>
      <trkpt lat="38.156673" lon="24.013705">
        <ele>2.767025</ele>
        <time>2024-04-28T10:24:59.000Z</time>
      </trkpt>
      <trkpt lat="38.156828" lon="24.013713">
        <ele>2.75867</ele>
        <time>2024-04-28T10:25:01.000Z</time>
      </trkpt>
      <trkpt lat="38.157591" lon="24.013668">
        <ele>2.992034</ele>
        <time>2024-04-28T10:25:09.000Z</time>
      </trkpt>
      <trkpt lat="38.157774" lon="24.013653">
        <ele>3.06002</ele>
        <time>2024-04-28T10:25:11.000Z</time>
      </trkpt>
      <trkpt lat="38.158016" lon="24.013633">
        <ele>3.144294</ele>
        <time>2024-04-28T10:25:14.000Z</time>
      </trkpt>
      <trkpt lat="38.15824" lon="24.013618">
        <ele>3.221279</ele>
        <time>2024-04-28T10:25:16.000Z</time>
      </trkpt>
      <trkpt lat="38.158332" lon="24.013622">
        <ele>3.251101</ele>
        <time>2024-04-28T10:25:17.000Z</time>
      </trkpt>
      <trkpt lat="38.158609" lon="24.013593">
        <ele>3.346135</ele>
        <time>2024-04-28T10:25:20.000Z</time>
      </trkpt>
      <trkpt lat="38.158854" lon="24.013584">
        <ele>3.460774</ele>
        <time>2024-04-28T10:25:23.000Z</time>
      </trkpt>
      <trkpt lat="38.158867" lon="24.013581">
        <ele>3.465516</ele>
        <time>2024-04-28T10:25:23.000Z</time>
      </trkpt>
      <trkpt lat="38.158994" lon="24.013577">
        <ele>3.537925</ele>
        <time>2024-04-28T10:25:24.000Z</time>
      </trkpt>
      <trkpt lat="38.159091" lon="24.013566">
        <ele>3.585492</ele>
        <time>2024-04-28T10:25:25.000Z</time>
      </trkpt>
      <trkpt lat="38.159437" lon="24.01354">
        <ele>3.76784</ele>
        <time>2024-04-28T10:25:29.000Z</time>
      </trkpt>
      <trkpt lat="38.15961" lon="24.013533">
        <ele>3.860335</ele>
        <time>2024-04-28T10:25:31.000Z</time>
      </trkpt>
      <trkpt lat="38.159745" lon="24.013526">
        <ele>3.931678</ele>
        <time>2024-04-28T10:25:33.000Z</time>
      </trkpt>
      <trkpt lat="38.159851" lon="24.013523">
        <ele>3.98929</ele>
        <time>2024-04-28T10:25:34.000Z</time>
      </trkpt>
      <trkpt lat="38.16025" lon="24.013489">
        <ele>4.19753</ele>
        <time>2024-04-28T10:25:38.000Z</time>
      </trkpt>
      <trkpt lat="38.160351" lon="24.013497">
        <ele>4.250373</ele>
        <time>2024-04-28T10:25:39.000Z</time>
      </trkpt>
      <trkpt lat="38.160515" lon="24.013477">
        <ele>4.325242</ele>
        <time>2024-04-28T10:25:41.000Z</time>
      </trkpt>
      <trkpt lat="38.16051" lon="24.013457">
        <ele>4.323893</ele>
        <time>2024-04-28T10:25:41.000Z</time>
      </trkpt>
      <trkpt lat="38.160495" lon="24.013401">
        <ele>4.318731</ele>
        <time>2024-04-28T10:25:42.000Z</time>
      </trkpt>
      <trkpt lat="38.160487" lon="24.012858">
        <ele>4.273563</ele>
        <time>2024-04-28T10:25:47.000Z</time>
      </trkpt>
      <trkpt lat="38.160486" lon="24.012704">
        <ele>4.259462</ele>
        <time>2024-04-28T10:25:48.000Z</time>
      </trkpt>
      <trkpt lat="38.160482" lon="24.012519">
        <ele>4.244503</ele>
        <time>2024-04-28T10:25:50.000Z</time>
      </trkpt>
      <trkpt lat="38.160473" lon="24.012365">
        <ele>4.230662</ele>
        <time>2024-04-28T10:25:51.000Z</time>
      </trkpt>
      <trkpt lat="38.160463" lon="24.011896">
        <ele>4.192066</ele>
        <time>2024-04-28T10:25:55.000Z</time>
      </trkpt>
      <trkpt lat="38.160446" lon="24.011703">
        <ele>4.174674</ele>
        <time>2024-04-28T10:25:57.000Z</time>
      </trkpt>
      <trkpt lat="38.160445" lon="24.011543">
        <ele>4.161666</ele>
        <time>2024-04-28T10:25:58.000Z</time>
      </trkpt>
      <trkpt lat="38.16045" lon="24.011462">
        <ele>4.154921</ele>
        <time>2024-04-28T10:25:59.000Z</time>
      </trkpt>
      <trkpt lat="38.160378" lon="24.011448">
        <ele>4.14781</ele>
        <time>2024-04-28T10:26:00.000Z</time>
      </trkpt>
      <trkpt lat="38.16019" lon="24.011425">
        <ele>4.11575</ele>
        <time>2024-04-28T10:26:02.000Z</time>
      </trkpt>
      <trkpt lat="38.160057" lon="24.01144">
        <ele>4.071357</ele>
        <time>2024-04-28T10:26:03.000Z</time>
      </trkpt>
      <trkpt lat="38.159867" lon="24.011443">
        <ele>4.013509</ele>
        <time>2024-04-28T10:26:05.000Z</time>
      </trkpt>
      <trkpt lat="38.159795" lon="24.01146">
        <ele>3.991929</ele>
        <time>2024-04-28T10:26:06.000Z</time>
      </trkpt>
      <trkpt lat="38.159652" lon="24.011458">
        <ele>3.946596</ele>
        <time>2024-04-28T10:26:08.000Z</time>
      </trkpt>
      <trkpt lat="38.159303" lon="24.011491">
        <ele>3.834655</ele>
        <time>2024-04-28T10:26:12.000Z</time>
      </trkpt>
      <trkpt lat="38.159054" lon="24.011505">
        <ele>3.756494</ele>
        <time>2024-04-28T10:26:15.000Z</time>
      </trkpt>
      <trkpt lat="38.158985" lon="24.011495">
        <ele>3.73928</ele>
        <time>2024-04-28T10:26:16.000Z</time>
      </trkpt>
      <trkpt lat="38.158853" lon="24.011514">
        <ele>3.69708</ele>
        <time>2024-04-28T10:26:17.000Z</time>
      </trkpt>
      <trkpt lat="38.15851" lon="24.011522">
        <ele>3.586398</ele>
        <time>2024-04-28T10:26:21.000Z</time>
      </trkpt>
      <trkpt lat="38.158309" lon="24.011538">
        <ele>3.563275</ele>
        <time>2024-04-28T10:26:23.000Z</time>
      </trkpt>
      <trkpt lat="38.158143" lon="24.011542">
        <ele>3.554449</ele>
        <time>2024-04-28T10:26:25.000Z</time>
      </trkpt>
      <trkpt lat="38.158025" lon="24.011558">
        <ele>3.547213</ele>
        <time>2024-04-28T10:26:26.000Z</time>
      </trkpt>
      <trkpt lat="38.157685" lon="24.011584">
        <ele>3.527335</ele>
        <time>2024-04-28T10:26:30.000Z</time>
      </trkpt>
      <trkpt lat="38.157542" lon="24.01158">
        <ele>3.519599</ele>
        <time>2024-04-28T10:26:32.000Z</time>
      </trkpt>
      <trkpt lat="38.157329" lon="24.011591">
        <ele>3.506887</ele>
        <time>2024-04-28T10:26:34.000Z</time>
      </trkpt>
      <trkpt lat="38.157178" lon="24.011616">
        <ele>3.498567</ele>
        <time>2024-04-28T10:26:36.000Z</time>
      </trkpt>
      <trkpt lat="38.156852" lon="24.011622">
        <ele>3.479157</ele>
        <time>2024-04-28T10:26:40.000Z</time>
      </trkpt>
      <trkpt lat="38.156785" lon="24.011632">
        <ele>3.475108</ele>
        <time>2024-04-28T10:26:41.000Z</time>
      </trkpt>
      <trkpt lat="38.156487" lon="24.011648">
        <ele>3.451538</ele>
        <time>2024-04-28T10:26:44.000Z</time>
      </trkpt>
      <trkpt lat="38.156432" lon="24.011646">
        <ele>3.446369</ele>
        <time>2024-04-28T10:26:45.000Z</time>
      </trkpt>
      <trkpt lat="38.156021" lon="24.011672">
        <ele>3.406497</ele>
        <time>2024-04-28T10:26:50.000Z</time>
      </trkpt>
      <trkpt lat="38.156007" lon="24.011682">
        <ele>3.405335</ele>
        <time>2024-04-28T10:26:50.000Z</time>
      </trkpt>
      <trkpt lat="38.15574" lon="24.011691">
        <ele>3.379472</ele>
        <time>2024-04-28T10:26:53.000Z</time>
      </trkpt>
      <trkpt lat="38.155685" lon="24.011698">
        <ele>3.374204</ele>
        <time>2024-04-28T10:26:54.000Z</time>
      </trkpt>
      <trkpt lat="38.15522" lon="24.011716">
        <ele>3.330787</ele>
        <time>2024-04-28T10:26:59.000Z</time>
      </trkpt>
      <trkpt lat="38.155182" lon="24.011722">
        <ele>3.326662</ele>
        <time>2024-04-28T10:26:59.000Z</time>
      </trkpt>
      <trkpt lat="38.154964" lon="24.011749">
        <ele>3.305369</ele>
        <time>2024-04-28T10:27:01.000Z</time>
      </trkpt>
      <trkpt lat="38.154787" lon="24.011757">
        <ele>3.301561</ele>
        <time>2024-04-28T10:27:03.000Z</time>
      </trkpt>
      <trkpt lat="38.153614" lon="24.011823">
        <ele>3.396632</ele>
        <time>2024-04-28T10:27:16.000Z</time>
      </trkpt>
      <trkpt lat="38.153602" lon="24.011834">
        <ele>3.398009</ele>
        <time>2024-04-28T10:27:16.000Z</time>
      </trkpt>
      <trkpt lat="38.153417" lon="24.011843">
        <ele>3.413772</ele>
        <time>2024-04-28T10:27:18.000Z</time>
      </trkpt>
      <trkpt lat="38.153386" lon="24.011839">
        <ele>3.415564</ele>
        <time>2024-04-28T10:27:18.000Z</time>
      </trkpt>
      <trkpt lat="38.151632" lon="24.011945">
        <ele>3.505156</ele>
        <time>2024-04-28T10:27:38.000Z</time>
      </trkpt>
      <trkpt lat="38.151527" lon="24.01195">
        <ele>3.509652</ele>
        <time>2024-04-28T10:27:39.000Z</time>
      </trkpt>
      <trkpt lat="38.151095" lon="24.011987">
        <ele>3.517385</ele>
        <time>2024-04-28T10:27:44.000Z</time>
      </trkpt>
      <trkpt lat="38.151018" lon="24.012002">
        <ele>3.515693</ele>
        <time>2024-04-28T10:27:45.000Z</time>
      </trkpt>
      <trkpt lat="38.150525" lon="24.012034">
        <ele>3.504736</ele>
        <time>2024-04-28T10:27:50.000Z</time>
      </trkpt>
      <trkpt lat="38.150525" lon="24.012035">
        <ele>3.504733</ele>
        <time>2024-04-28T10:27:50.000Z</time>
      </trkpt>
      <trkpt lat="38.150331" lon="24.01205">
        <ele>3.500196</ele>
        <time>2024-04-28T10:27:52.000Z</time>
      </trkpt>
      <trkpt lat="38.150214" lon="24.012045">
        <ele>3.497654</ele>
        <time>2024-04-28T10:27:53.000Z</time>
      </trkpt>
      <trkpt lat="38.149735" lon="24.01207">
        <ele>3.48699</ele>
        <time>2024-04-28T10:27:58.000Z</time>
      </trkpt>
      <trkpt lat="38.149714" lon="24.01208">
        <ele>3.486445</ele>
        <time>2024-04-28T10:27:58.000Z</time>
      </trkpt>
      <trkpt lat="38.149388" lon="24.01209">
        <ele>3.493579</ele>
        <time>2024-04-28T10:28:02.000Z</time>
      </trkpt>
      <trkpt lat="38.149346" lon="24.012098">
        <ele>3.500272</ele>
        <time>2024-04-28T10:28:02.000Z</time>
      </trkpt>
      <trkpt lat="38.148942" lon="24.012128">
        <ele>3.559156</ele>
        <time>2024-04-28T10:28:06.000Z</time>
      </trkpt>
      <trkpt lat="38.148939" lon="24.012115">
        <ele>3.561387</ele>
        <time>2024-04-28T10:28:06.000Z</time>
      </trkpt>
      <trkpt lat="38.148764" lon="24.012128">
        <ele>3.586814</ele>
        <time>2024-04-28T10:28:08.000Z</time>
      </trkpt>
      <trkpt lat="38.148562" lon="24.012143">
        <ele>3.616129</ele>
        <time>2024-04-28T10:28:10.000Z</time>
      </trkpt>
      <trkpt lat="38.148169" lon="24.012161">
        <ele>3.676357</ele>
        <time>2024-04-28T10:28:14.000Z</time>
      </trkpt>
      <trkpt lat="38.148139" lon="24.012172">
        <ele>3.680809</ele>
        <time>2024-04-28T10:28:14.000Z</time>
      </trkpt>
      <trkpt lat="38.147978" lon="24.012191">
        <ele>3.704764</ele>
        <time>2024-04-28T10:28:16.000Z</time>
      </trkpt>
      <trkpt lat="38.147328" lon="24.012224">
        <ele>3.75795</ele>
        <time>2024-04-28T10:28:23.000Z</time>
      </trkpt>
      <trkpt lat="38.147188" lon="24.012241">
        <ele>3.761918</ele>
        <time>2024-04-28T10:28:25.000Z</time>
      </trkpt>
      <trkpt lat="38.14691" lon="24.012249">
        <ele>3.769316</ele>
        <time>2024-04-28T10:28:28.000Z</time>
      </trkpt>
      <trkpt lat="38.146573" lon="24.012272">
        <ele>3.77844</ele>
        <time>2024-04-28T10:28:32.000Z</time>
      </trkpt>
      <trkpt lat="38.14639" lon="24.012279">
        <ele>3.783635</ele>
        <time>2024-04-28T10:28:34.000Z</time>
      </trkpt>
      <trkpt lat="38.146084" lon="24.012309">
        <ele>3.791646</ele>
        <time>2024-04-28T10:28:37.000Z</time>
      </trkpt>
      <trkpt lat="38.145791" lon="24.012315">
        <ele>3.79589</ele>
        <time>2024-04-28T10:28:40.000Z</time>
      </trkpt>
      <trkpt lat="38.145684" lon="24.01232">
        <ele>3.793745</ele>
        <time>2024-04-28T10:28:41.000Z</time>
      </trkpt>
      <trkpt lat="38.140573" lon="24.012643">
        <ele>3.68578</ele>
        <time>2024-04-28T10:29:38.000Z</time>
      </trkpt>
      <trkpt lat="38.140339" lon="24.01279">
        <ele>3.64336</ele>
        <time>2024-04-28T10:29:41.000Z</time>
      </trkpt>
      <trkpt lat="38.140168" lon="24.012999">
        <ele>3.590805</ele>
        <time>2024-04-28T10:29:44.000Z</time>
      </trkpt>
      <trkpt lat="38.140004" lon="24.013343">
        <ele>3.518834</ele>
        <time>2024-04-28T10:29:48.000Z</time>
      </trkpt>
      <trkpt lat="38.139821" lon="24.01385">
        <ele>3.419099</ele>
        <time>2024-04-28T10:29:53.000Z</time>
      </trkpt>
      <trkpt lat="38.139828" lon="24.013888">
        <ele>3.413965</ele>
        <time>2024-04-28T10:29:53.000Z</time>
      </trkpt>
      <trkpt lat="38.139827" lon="24.014156">
        <ele>3.36585</ele>
        <time>2024-04-28T10:29:55.000Z</time>
      </trkpt>
      <trkpt lat="38.139826" lon="24.014184">
        <ele>3.361041</ele>
        <time>2024-04-28T10:29:55.000Z</time>
      </trkpt>
      <trkpt lat="38.139866" lon="24.014371">
        <ele>3.327201</ele>
        <time>2024-04-28T10:29:57.000Z</time>
      </trkpt>
      <trkpt lat="38.139901" lon="24.014493">
        <ele>3.304311</ele>
        <time>2024-04-28T10:29:58.000Z</time>
      </trkpt>
      <trkpt lat="38.139898" lon="24.0145">
        <ele>3.301517</ele>
        <time>2024-04-28T10:29:58.000Z</time>
      </trkpt>
      <trkpt lat="38.140162" lon="24.014966">
        <ele>3.204315</ele>
        <time>2024-04-28T10:30:03.000Z</time>
      </trkpt>
      <trkpt lat="38.140262" lon="24.015087">
        <ele>3.175501</ele>
        <time>2024-04-28T10:30:05.000Z</time>
      </trkpt>
      <trkpt lat="38.140273" lon="24.015078">
        <ele>3.175514</ele>
        <time>2024-04-28T10:30:05.000Z</time>
      </trkpt>
      <trkpt lat="38.140385" lon="24.015257">
        <ele>3.136863</ele>
        <time>2024-04-28T10:30:07.000Z</time>
      </trkpt>
      <trkpt lat="38.14045" lon="24.015362">
        <ele>3.116123</ele>
        <time>2024-04-28T10:30:08.000Z</time>
      </trkpt>
      <trkpt lat="38.140509" lon="24.015481">
        <ele>3.091697</ele>
        <time>2024-04-28T10:30:09.000Z</time>
      </trkpt>
      <trkpt lat="38.140512" lon="24.015478">
        <ele>3.090649</ele>
        <time>2024-04-28T10:30:09.000Z</time>
      </trkpt>
      <trkpt lat="38.140578" lon="24.015574">
        <ele>3.072768</ele>
        <time>2024-04-28T10:30:10.000Z</time>
      </trkpt>
      <trkpt lat="38.140589" lon="24.015634">
        <ele>3.060886</ele>
        <time>2024-04-28T10:30:11.000Z</time>
      </trkpt>
      <trkpt lat="38.140652" lon="24.015771">
        <ele>3.036051</ele>
        <time>2024-04-28T10:30:12.000Z</time>
      </trkpt>
      <trkpt lat="38.140674" lon="24.015786">
        <ele>3.030438</ele>
        <time>2024-04-28T10:30:12.000Z</time>
      </trkpt>
      <trkpt lat="38.140735" lon="24.015939">
        <ele>3.001488</ele>
        <time>2024-04-28T10:30:14.000Z</time>
      </trkpt>
      <trkpt lat="38.140653" lon="24.015993">
        <ele>2.9816</ele>
        <time>2024-04-28T10:30:15.000Z</time>
      </trkpt>
      <trkpt lat="38.140586" lon="24.016036">
        <ele>2.963712</ele>
        <time>2024-04-28T10:30:16.000Z</time>
      </trkpt>
      <trkpt lat="38.140236" lon="24.016181">
        <ele>2.902988</ele>
        <time>2024-04-28T10:30:20.000Z</time>
      </trkpt>
      <trkpt lat="38.140123" lon="24.01623">
        <ele>2.911145</ele>
        <time>2024-04-28T10:30:21.000Z</time>
      </trkpt>
      <trkpt lat="38.140068" lon="24.016258">
        <ele>2.915776</ele>
        <time>2024-04-28T10:30:22.000Z</time>
      </trkpt>
      <trkpt lat="38.139969" lon="24.016294">
        <ele>2.921999</ele>
        <time>2024-04-28T10:30:23.000Z</time>
      </trkpt>
      <trkpt lat="38.139931" lon="24.016313">
        <ele>2.924834</ele>
        <time>2024-04-28T10:30:23.000Z</time>
      </trkpt>
      <trkpt lat="38.139868" lon="24.016356">
        <ele>2.930757</ele>
        <time>2024-04-28T10:30:24.000Z</time>
      </trkpt>
      <trkpt lat="38.139844" lon="24.016357">
        <ele>2.931584</ele>
        <time>2024-04-28T10:30:24.000Z</time>
      </trkpt>
      <trkpt lat="38.139496" lon="24.01652">
        <ele>2.958534</ele>
        <time>2024-04-28T10:30:28.000Z</time>
      </trkpt>
      <trkpt lat="38.139253" lon="24.016623">
        <ele>2.975433</ele>
        <time>2024-04-28T10:30:31.000Z</time>
      </trkpt>
      <trkpt lat="38.139256" lon="24.016619">
        <ele>2.975498</ele>
        <time>2024-04-28T10:30:31.000Z</time>
      </trkpt>
      <trkpt lat="38.139217" lon="24.016622">
        <ele>2.978764</ele>
        <time>2024-04-28T10:30:31.000Z</time>
      </trkpt>
      <trkpt lat="38.139086" lon="24.01665">
        <ele>2.988338</ele>
        <time>2024-04-28T10:30:32.000Z</time>
      </trkpt>
      <trkpt lat="38.138836" lon="24.016681">
        <ele>3.005932</ele>
        <time>2024-04-28T10:30:35.000Z</time>
      </trkpt>
      <trkpt lat="38.138774" lon="24.016683">
        <ele>3.010522</ele>
        <time>2024-04-28T10:30:36.000Z</time>
      </trkpt>
      <trkpt lat="38.138585" lon="24.016666">
        <ele>3.023797</ele>
        <time>2024-04-28T10:30:38.000Z</time>
      </trkpt>
      <trkpt lat="38.138574" lon="24.016684">
        <ele>3.023788</ele>
        <time>2024-04-28T10:30:38.000Z</time>
      </trkpt>
      <trkpt lat="38.138478" lon="24.01667">
        <ele>3.020782</ele>
        <time>2024-04-28T10:30:39.000Z</time>
      </trkpt>
      <trkpt lat="38.138402" lon="24.016669">
        <ele>3.016613</ele>
        <time>2024-04-28T10:30:40.000Z</time>
      </trkpt>
      <trkpt lat="38.138215" lon="24.016684">
        <ele>3.004926</ele>
        <time>2024-04-28T10:30:42.000Z</time>
      </trkpt>
      <trkpt lat="38.138222" lon="24.016688">
        <ele>3.004933</ele>
        <time>2024-04-28T10:30:42.000Z</time>
      </trkpt>
      <trkpt lat="38.138224" lon="24.016485">
        <ele>2.995326</ele>
        <time>2024-04-28T10:30:44.000Z</time>
      </trkpt>
      <trkpt lat="38.138226" lon="24.016482">
        <ele>2.994439</ele>
        <time>2024-04-28T10:30:44.000Z</time>
      </trkpt>
      <trkpt lat="38.138241" lon="24.016214">
        <ele>2.981575</ele>
        <time>2024-04-28T10:30:46.000Z</time>
      </trkpt>
      <trkpt lat="38.138236" lon="24.016024">
        <ele>2.972345</ele>
        <time>2024-04-28T10:30:48.000Z</time>
      </trkpt>
      <trkpt lat="38.138343" lon="24.015305">
        <ele>2.936748</ele>
        <time>2024-04-28T10:30:54.000Z</time>
      </trkpt>
      <trkpt lat="38.138376" lon="24.015158">
        <ele>2.928868</ele>
        <time>2024-04-28T10:30:55.000Z</time>
      </trkpt>
      <trkpt lat="38.138493" lon="24.014729">
        <ele>2.925894</ele>
        <time>2024-04-28T10:30:59.000Z</time>
      </trkpt>
      <trkpt lat="38.138513" lon="24.014691">
        <ele>2.929932</ele>
        <time>2024-04-28T10:30:59.000Z</time>
      </trkpt>
      <trkpt lat="38.138709" lon="24.014257">
        <ele>2.977725</ele>
        <time>2024-04-28T10:31:03.000Z</time>
      </trkpt>
      <trkpt lat="38.138849" lon="24.013932">
        <ele>3.014342</ele>
        <time>2024-04-28T10:31:06.000Z</time>
      </trkpt>
      <trkpt lat="38.138926" lon="24.013786">
        <ele>3.030517</ele>
        <time>2024-04-28T10:31:08.000Z</time>
      </trkpt>
      <trkpt lat="38.138926" lon="24.013798">
        <ele>3.030514</ele>
        <time>2024-04-28T10:31:08.000Z</time>
      </trkpt>
      <trkpt lat="38.138961" lon="24.013759">
        <ele>3.034775</ele>
        <time>2024-04-28T10:31:09.000Z</time>
      </trkpt>
      <trkpt lat="38.13898" lon="24.013723">
        <ele>3.039726</ele>
        <time>2024-04-28T10:31:09.000Z</time>
      </trkpt>
      <trkpt lat="38.139076" lon="24.013581">
        <ele>3.056426</ele>
        <time>2024-04-28T10:31:11.000Z</time>
      </trkpt>
      <trkpt lat="38.139156" lon="24.013446">
        <ele>3.073564</ele>
        <time>2024-04-28T10:31:12.000Z</time>
      </trkpt>
      <trkpt lat="38.139165" lon="24.013434">
        <ele>3.073565</ele>
        <time>2024-04-28T10:31:12.000Z</time>
      </trkpt>
      <trkpt lat="38.139296" lon="24.013244">
        <ele>3.099256</ele>
        <time>2024-04-28T10:31:14.000Z</time>
      </trkpt>
      <trkpt lat="38.139315" lon="24.013208">
        <ele>3.103231</ele>
        <time>2024-04-28T10:31:14.000Z</time>
      </trkpt>
      <trkpt lat="38.139394" lon="24.013078">
        <ele>3.117681</ele>
        <time>2024-04-28T10:31:15.000Z</time>
      </trkpt>
      <trkpt lat="38.139638" lon="24.012694">
        <ele>3.204314</ele>
        <time>2024-04-28T10:31:19.000Z</time>
      </trkpt>
      <trkpt lat="38.140131" lon="24.011963">
        <ele>3.398892</ele>
        <time>2024-04-28T10:31:27.000Z</time>
      </trkpt>
      <trkpt lat="38.140293" lon="24.011717">
        <ele>3.468463</ele>
        <time>2024-04-28T10:31:30.000Z</time>
      </trkpt>
      <trkpt lat="38.140406" lon="24.011533">
        <ele>3.514295</ele>
        <time>2024-04-28T10:31:32.000Z</time>
      </trkpt>
      <trkpt lat="38.140617" lon="24.011226">
        <ele>3.595555</ele>
        <time>2024-04-28T10:31:36.000Z</time>
      </trkpt>
      <trkpt lat="38.141259" lon="24.010248">
        <ele>3.717204</ele>
        <time>2024-04-28T10:31:47.000Z</time>
      </trkpt>
      <trkpt lat="38.141265" lon="24.010244">
        <ele>3.717491</ele>
        <time>2024-04-28T10:31:47.000Z</time>
      </trkpt>
      <trkpt lat="38.141435" lon="24.009986">
        <ele>3.7481</ele>
        <time>2024-04-28T10:31:50.000Z</time>
      </trkpt>
      <trkpt lat="38.141682" lon="24.009604">
        <ele>3.796127</ele>
        <time>2024-04-28T10:31:54.000Z</time>
      </trkpt>
      <trkpt lat="38.141757" lon="24.009474">
        <ele>3.811053</ele>
        <time>2024-04-28T10:31:55.000Z</time>
      </trkpt>
      <trkpt lat="38.141764" lon="24.009477">
        <ele>3.811055</ele>
        <time>2024-04-28T10:31:55.000Z</time>
      </trkpt>
      <trkpt lat="38.141896" lon="24.009258">
        <ele>3.871417</ele>
        <time>2024-04-28T10:31:57.000Z</time>
      </trkpt>
      <trkpt lat="38.142204" lon="24.008803">
        <ele>4.003962</ele>
        <time>2024-04-28T10:32:02.000Z</time>
      </trkpt>
      <trkpt lat="38.142406" lon="24.008499">
        <ele>4.093125</ele>
        <time>2024-04-28T10:32:05.000Z</time>
      </trkpt>
      <trkpt lat="38.142402" lon="24.008494">
        <ele>4.093131</ele>
        <time>2024-04-28T10:32:05.000Z</time>
      </trkpt>
      <trkpt lat="38.142731" lon="24.008009">
        <ele>4.235771</ele>
        <time>2024-04-28T10:32:11.000Z</time>
      </trkpt>
      <trkpt lat="38.14281" lon="24.007881">
        <ele>4.270964</ele>
        <time>2024-04-28T10:32:12.000Z</time>
      </trkpt>
      <trkpt lat="38.142839" lon="24.007836">
        <ele>4.283664</ele>
        <time>2024-04-28T10:32:13.000Z</time>
      </trkpt>
      <trkpt lat="38.142981" lon="24.007628">
        <ele>4.329557</ele>
        <time>2024-04-28T10:32:15.000Z</time>
      </trkpt>
      <trkpt lat="38.145747" lon="24.003425">
        <ele>4.92367</ele>
        <time>2024-04-28T10:33:03.000Z</time>
      </trkpt>
      <trkpt lat="38.146155" lon="24.002805">
        <ele>5.149851</ele>
        <time>2024-04-28T10:33:10.000Z</time>
      </trkpt>
      <trkpt lat="38.146151" lon="24.002806">
        <ele>5.149856</ele>
        <time>2024-04-28T10:33:10.000Z</time>
      </trkpt>
      <trkpt lat="38.146224" lon="24.002698">
        <ele>5.190832</ele>
        <time>2024-04-28T10:33:11.000Z</time>
      </trkpt>
      <trkpt lat="38.146333" lon="24.002516">
        <ele>5.251546</ele>
        <time>2024-04-28T10:33:13.000Z</time>
      </trkpt>
      <trkpt lat="38.146368" lon="24.002474">
        <ele>5.267174</ele>
        <time>2024-04-28T10:33:14.000Z</time>
      </trkpt>
      <trkpt lat="38.146623" lon="24.002079">
        <ele>5.428295</ele>
        <time>2024-04-28T10:33:18.000Z</time>
      </trkpt>
      <trkpt lat="38.14671" lon="24.00196">
        <ele>5.478525</ele>
        <time>2024-04-28T10:33:19.000Z</time>
      </trkpt>
      <trkpt lat="38.146809" lon="24.001792">
        <ele>5.540986</ele>
        <time>2024-04-28T10:33:21.000Z</time>
      </trkpt>
      <trkpt lat="38.146933" lon="24.001611">
        <ele>5.6162</ele>
        <time>2024-04-28T10:33:23.000Z</time>
      </trkpt>
      <trkpt lat="38.150535" lon="23.996124">
        <ele>7.582496</ele>
        <time>2024-04-28T10:34:26.000Z</time>
      </trkpt>
      <trkpt lat="38.150572" lon="23.996065">
        <ele>7.590916</ele>
        <time>2024-04-28T10:34:27.000Z</time>
      </trkpt>
      <trkpt lat="38.150583" lon="23.996074">
        <ele>7.590928</ele>
        <time>2024-04-28T10:34:27.000Z</time>
      </trkpt>
      <trkpt lat="38.150629" lon="23.996006">
        <ele>7.602993</ele>
        <time>2024-04-28T10:34:28.000Z</time>
      </trkpt>
      <trkpt lat="38.150675" lon="23.995904">
        <ele>7.617154</ele>
        <time>2024-04-28T10:34:29.000Z</time>
      </trkpt>
      <trkpt lat="38.150675" lon="23.995915">
        <ele>7.61716</ele>
        <time>2024-04-28T10:34:29.000Z</time>
      </trkpt>
      <trkpt lat="38.150648" lon="23.995862">
        <ele>7.624417</ele>
        <time>2024-04-28T10:34:30.000Z</time>
      </trkpt>
      <trkpt lat="38.150631" lon="23.995845">
        <ele>7.629296</ele>
        <time>2024-04-28T10:34:30.000Z</time>
      </trkpt>
      <trkpt lat="38.150631" lon="23.995853">
        <ele>7.629298</ele>
        <time>2024-04-28T10:34:30.000Z</time>
      </trkpt>
      <trkpt lat="38.150564" lon="23.99594">
        <ele>7.643934</ele>
        <time>2024-04-28T10:34:31.000Z</time>
      </trkpt>
      <trkpt lat="38.150525" lon="23.996026">
        <ele>7.65629</ele>
        <time>2024-04-28T10:34:32.000Z</time>
      </trkpt>
      <trkpt lat="38.150401" lon="23.996186">
        <ele>7.683688</ele>
        <time>2024-04-28T10:34:34.000Z</time>
      </trkpt>
      <trkpt lat="38.146365" lon="24.0023">
        <ele>5.166142</ele>
        <time>2024-04-28T10:35:44.000Z</time>
      </trkpt>
      <trkpt lat="38.146252" lon="24.00248">
        <ele>5.14274</ele>
        <time>2024-04-28T10:35:46.000Z</time>
      </trkpt>
      <trkpt lat="38.146059" lon="24.002795">
        <ele>5.098082</ele>
        <time>2024-04-28T10:35:49.000Z</time>
      </trkpt>
      <trkpt lat="38.145299" lon="24.003928">
        <ele>4.965222</ele>
        <time>2024-04-28T10:36:02.000Z</time>
      </trkpt>
      <trkpt lat="38.142348" lon="24.008389">
        <ele>4.335637</ele>
        <time>2024-04-28T10:36:53.000Z</time>
      </trkpt>
      <trkpt lat="38.141886" lon="24.009087">
        <ele>4.115601</ele>
        <time>2024-04-28T10:37:01.000Z</time>
      </trkpt>
      <trkpt lat="38.141311" lon="24.009952">
        <ele>3.824509</ele>
        <time>2024-04-28T10:37:11.000Z</time>
      </trkpt>
      <trkpt lat="38.141149" lon="24.010203">
        <ele>3.742571</ele>
        <time>2024-04-28T10:37:14.000Z</time>
      </trkpt>
      <trkpt lat="38.141086" lon="24.010305">
        <ele>3.712001</ele>
        <time>2024-04-28T10:37:15.000Z</time>
      </trkpt>
      <trkpt lat="38.140778" lon="24.01075">
        <ele>3.615393</ele>
        <time>2024-04-28T10:37:20.000Z</time>
      </trkpt>
      <trkpt lat="38.140618" lon="24.011021">
        <ele>3.560265</ele>
        <time>2024-04-28T10:37:23.000Z</time>
      </trkpt>
      <trkpt lat="38.140619" lon="24.011029">
        <ele>3.559387</ele>
        <time>2024-04-28T10:37:23.000Z</time>
      </trkpt>
      <trkpt lat="38.140528" lon="24.011141">
        <ele>3.535844</ele>
        <time>2024-04-28T10:37:24.000Z</time>
      </trkpt>
      <trkpt lat="38.140306" lon="24.011485">
        <ele>3.463034</ele>
        <time>2024-04-28T10:37:28.000Z</time>
      </trkpt>
      <trkpt lat="38.140116" lon="24.011765">
        <ele>3.401291</ele>
        <time>2024-04-28T10:37:31.000Z</time>
      </trkpt>
      <trkpt lat="38.140074" lon="24.011839">
        <ele>3.386899</ele>
        <time>2024-04-28T10:37:32.000Z</time>
      </trkpt>
      <trkpt lat="38.139622" lon="24.012519">
        <ele>3.20256</ele>
        <time>2024-04-28T10:37:40.000Z</time>
      </trkpt>
      <trkpt lat="38.139094" lon="24.013338">
        <ele>2.962304</ele>
        <time>2024-04-28T10:37:49.000Z</time>
      </trkpt>
      <trkpt lat="38.139094" lon="24.013328">
        <ele>2.962298</ele>
        <time>2024-04-28T10:37:49.000Z</time>
      </trkpt>
      <trkpt lat="38.138979" lon="24.013504">
        <ele>2.911968</ele>
        <time>2024-04-28T10:37:51.000Z</time>
      </trkpt>
      <trkpt lat="38.138959" lon="24.013528">
        <ele>2.903825</ele>
        <time>2024-04-28T10:37:51.000Z</time>
      </trkpt>
      <trkpt lat="38.138905" lon="24.013619">
        <ele>2.87794</ele>
        <time>2024-04-28T10:37:52.000Z</time>
      </trkpt>
      <trkpt lat="38.13888" lon="24.013658">
        <ele>2.866949</ele>
        <time>2024-04-28T10:37:52.000Z</time>
      </trkpt>
      <trkpt lat="38.138857" lon="24.013704">
        <ele>2.856103</ele>
        <time>2024-04-28T10:37:52.000Z</time>
      </trkpt>
      <trkpt lat="38.138729" lon="24.013946">
        <ele>2.864392</ele>
        <time>2024-04-28T10:37:55.000Z</time>
      </trkpt>
      <trkpt lat="38.138555" lon="24.014319">
        <ele>2.938588</ele>
        <time>2024-04-28T10:37:59.000Z</time>
      </trkpt>
      <trkpt lat="38.138305" lon="24.014996">
        <ele>3.060572</ele>
        <time>2024-04-28T10:38:06.000Z</time>
      </trkpt>
      <trkpt lat="38.138235" lon="24.015335">
        <ele>3.119752</ele>
        <time>2024-04-28T10:38:09.000Z</time>
      </trkpt>
      <trkpt lat="38.138201" lon="24.015404">
        <ele>3.134283</ele>
        <time>2024-04-28T10:38:10.000Z</time>
      </trkpt>
      <trkpt lat="38.138135" lon="24.015454">
        <ele>3.151245</ele>
        <time>2024-04-28T10:38:11.000Z</time>
      </trkpt>
      <trkpt lat="38.13804" lon="24.015424">
        <ele>3.168332</ele>
        <time>2024-04-28T10:38:12.000Z</time>
      </trkpt>
      <trkpt lat="38.13799" lon="24.015383">
        <ele>3.184306</ele>
        <time>2024-04-28T10:38:13.000Z</time>
      </trkpt>
      <trkpt lat="38.137894" lon="24.015226">
        <ele>3.21783066453</ele>
        <time>2024-04-28T10:38:15.000Z</time>
      </trkpt>
      <trkpt lat="38.137841" lon="24.015125">
        <ele>3.23829908797</ele>
        <time>2024-04-28T10:38:16.000Z</time>
      </trkpt>
      <trkpt lat="38.137758" lon="24.014978">
        <ele>3.26880493332</ele>
        <time>2024-04-28T10:38:18.000Z</time>
      </trkpt>
      <trkpt lat="38.137048" lon="24.01373">
        <ele>3.52846426403</ele>
        <time>2024-04-28T10:38:31.000Z</time>
      </trkpt>
      <trkpt lat="38.136959" lon="24.013563">
        <ele>3.56247177482</ele>
        <time>2024-04-28T10:38:33.000Z</time>
      </trkpt>
    </trkseg>
  </trk>
</gpx>

<!--
Performance optimized by W3 Total Cache. Learn more: https://www.boldgrid.com/w3-total-cache/?utm_source=w3tc&utm_medium=footer_comment&utm_campaign=free_plugin

Page Caching using Disk: Enhanced{w3tc_pagecache_reject_reason} 

Served from: www.aquabike.world @ 2026-05-10 23:00:17 by W3 Total Cache
-->